Observation data for Dell City 1N on 02/11/2019      Previous  Date       Current Mesonet Observations  Soil Data  Daily Summary Page  Observations in Plain Language
KDC1 110600Z 30002KT 03/03 A2996 RMK A01 T00310025  RH  096%=      5-min Rain = 0
KDC1 110601Z 30002KT 03/03 A2996 RMK A01 T00310026  RH  096%=      5-min Rain = 0
KDC1 110602Z 30002KT 03/03 A2996 RMK A01 T00320027  RH  097%=      5-min Rain = 0
KDC1 110603Z 30002KT 03/03 A2996 RMK A01 T00320027  RH  097%=      5-min Rain = 0
KDC1 110604Z 29002KT 03/03 A2996 RMK A01 T00320027  RH  097%=      5-min Rain = 0
KDC1 110605Z 29002KT 03/03 A2996 RMK A01 T00320027  RH  097%=      5-min Rain = 0
KDC1 110606Z 28001KT 03/03 A2996 RMK A01 T00320027  RH  097%=      5-min Rain = 0
KDC1 110607Z 27001KT 03/03 A2996 RMK A01 T00320028  RH  097%=      5-min Rain = 0
KDC1 110608Z 27001KT 03/03 A2996 RMK A01 T00330028  RH  097%=      5-min Rain = 0
KDC1 110609Z 28002KT 03/03 A2996 RMK A01 T00330028  RH  097%=      5-min Rain = 0
KDC1 110610Z 26001KT 03/03 A2996 RMK A01 T00320028  RH  097%=      5-min Rain = 0
KDC1 110611Z 25001KT 03/03 A2996 RMK A01 T00330028  RH  097%=      5-min Rain = 0
KDC1 110612Z 25001KT 03/03 A2996 RMK A01 T00330028  RH  097%=      5-min Rain = 0
KDC1 110613Z 25002KT 03/03 A2996 RMK A01 T00340030  RH  097%=      5-min Rain = 0
KDC1 110614Z 23001KT 04/03 A2995 RMK A01 T00350031  RH  097%=      5-min Rain = 0
KDC1 110615Z 21001KT 04/03 A2995 RMK A01 T00360033  RH  097%=      5-min Rain = 0
KDC1 110616Z 20001KT 04/03 A2995 RMK A01 T00380034  RH  098%=      5-min Rain = 0
KDC1 110617Z 18001KT 04/04 A2995 RMK A01 T00380035  RH  098%=      5-min Rain = 0
KDC1 110618Z 17001KT 04/03 A2995 RMK A01 T00360032  RH  097%=      5-min Rain = 0
KDC1 110619Z 14002KT 03/03 A2995 RMK A01 T00340029  RH  097%=      5-min Rain = 0
KDC1 110620Z 13003KT 03/03 A2995 RMK A01 T00320027  RH  097%=      5-min Rain = 0
KDC1 110621Z 13004KT 03/03 A2995 RMK A01 T00310026  RH  096%=      5-min Rain = 0
KDC1 110622Z 13004KT 03/03 A2995 RMK A01 T00300025  RH  097%=      5-min Rain = 0
KDC1 110623Z 14004KT 03/03 A2996 RMK A01 T00300026  RH  097%=      5-min Rain = 0
KDC1 110624Z 14003KT 03/03 A2996 RMK A01 T00300026  RH  097%=      5-min Rain = 0
KDC1 110625Z 15003KT 03/03 A2996 RMK A01 T00300026  RH  097%=      5-min Rain = 0
KDC1 110626Z 16003KT 03/03 A2996 RMK A01 T00300026  RH  097%=      5-min Rain = 0
KDC1 110627Z 16002KT 03/03 A2996 RMK A01 T00300026  RH  097%=      5-min Rain = 0
KDC1 110628Z 17002KT 03/03 A2996 RMK A01 T00300026  RH  097%=      5-min Rain = 0
KDC1 110629Z 17002KT 03/03 A2996 RMK A01 T00300026  RH  097%=      5-min Rain = 0
KDC1 110630Z 18002KT 03/03 A2996 RMK A01 T00300026  RH  097%=      5-min Rain = 0
KDC1 110631Z 19003KT 03/03 A2995 RMK A01 T00310027  RH  097%=      5-min Rain = 0
KDC1 110632Z 19003KT 03/03 A2995 RMK A01 T00320029  RH  097%=      5-min Rain = 0
KDC1 110633Z 19004KT 03/03 A2995 RMK A01 T00340031  RH  098%=      5-min Rain = 0
KDC1 110634Z 19003KT 04/03 A2995 RMK A01 T00370034  RH  098%=      5-min Rain = 0
KDC1 110635Z 19003KT 04/04 A2995 RMK A01 T00390036  RH  098%=      5-min Rain = 0
KDC1 110636Z 19003KT 04/04 A2995 RMK A01 T00400037  RH  098%=      5-min Rain = 0
KDC1 110637Z 20004KT 04/04 A2995 RMK A01 T00410038  RH  098%=      5-min Rain = 0
KDC1 110638Z 20004KT 04/04 A2995 RMK A01 T00410038  RH  098%=      5-min Rain = 0
KDC1 110639Z 20003KT 04/04 A2995 RMK A01 T00420039  RH  098%=      5-min Rain = 0
KDC1 110640Z 20004KT 04/04 A2995 RMK A01 T00440040  RH  098%=      5-min Rain = 0
KDC1 110641Z 20005KT 05/04 A2995 RMK A01 T00450041  RH  098%=      5-min Rain = 0
KDC1 110642Z 20004KT 05/04 A2995 RMK A01 T00460042  RH  098%=      5-min Rain = 0
KDC1 110643Z 20004KT 05/04 A2995 RMK A01 T00460043  RH  097%=      5-min Rain = 0
KDC1 110644Z 21004KT 05/04 A2995 RMK A01 T00470043  RH  097%=      5-min Rain = 0
KDC1 110645Z 21004KT 05/04 A2995 RMK A01 T00470043  RH  097%=      5-min Rain = 0
KDC1 110646Z 21004KT 05/04 A2995 RMK A01 T00480044  RH  097%=      5-min Rain = 0
KDC1 110647Z 21003KT 05/04 A2994 RMK A01 T00490044  RH  097%=      5-min Rain = 0
KDC1 110648Z 21003KT 05/04 A2994 RMK A01 T00490044  RH  097%=      5-min Rain = 0
KDC1 110649Z 21003KT 05/04 A2994 RMK A01 T00500044  RH  096%=      5-min Rain = 0
KDC1 110650Z 20003KT 05/05 A2994 RMK A01 T00500045  RH  096%=      5-min Rain = 0
KDC1 110651Z 20002KT 05/04 A2994 RMK A01 T00500044  RH  096%=      5-min Rain = 0
KDC1 110652Z 21003KT 05/04 A2994 RMK A01 T00500044  RH  096%=      5-min Rain = 0
KDC1 110653Z 21002KT 05/04 A2994 RMK A01 T00500044  RH  096%=      5-min Rain = 0
KDC1 110654Z 21002KT 05/05 A2994 RMK A01 T00510045  RH  096%=      5-min Rain = 0
KDC1 110655Z 21002KT 05/05 A2994 RMK A01 T00510045  RH  096%=      5-min Rain = 0
KDC1 110656Z 22002KT 05/04 A2995 RMK A01 T00510044  RH  095%=      5-min Rain = 0
KDC1 110657Z 21003KT 05/04 A2995 RMK A01 T00510043  RH  095%=      5-min Rain = 0
KDC1 110658Z 20002KT 05/04 A2995 RMK A01 T00510043  RH  095%=      5-min Rain = 0
KDC1 110659Z 21003KT 05/04 A2995 RMK A01 T00510044  RH  095%=      5-min Rain = 0
KDC1 110700Z 20003KT 05/04 A2994 RMK A01 T00510044  RH  095%=      5-min Rain = 0
KDC1 110701Z 19003KT 05/04 A2994 RMK A01 T00520044  RH  095%=      5-min Rain = 0
KDC1 110702Z 18003KT 05/04 A2994 RMK A01 T00520044  RH  095%=      5-min Rain = 0
KDC1 110703Z 18003KT 05/04 A2994 RMK A01 T00520043  RH  095%=      5-min Rain = 0
KDC1 110704Z 18003KT 05/04 A2994 RMK A01 T00510043  RH  094%=      5-min Rain = 0
KDC1 110705Z 18003KT 05/04 A2994 RMK A01 T00510042  RH  094%=      5-min Rain = 0
KDC1 110706Z 18003KT 05/04 A2994 RMK A01 T00500041  RH  094%=      5-min Rain = 0
KDC1 110707Z 18003KT 05/04 A2994 RMK A01 T00490040  RH  094%=      5-min Rain = 0
KDC1 110708Z 18003KT 05/04 A2994 RMK A01 T00480039  RH  094%=      5-min Rain = 0
KDC1 110709Z 17003KT 05/04 A2994 RMK A01 T00470038  RH  094%=      5-min Rain = 0
KDC1 110710Z 18003KT 05/04 A2994 RMK A01 T00460037  RH  094%=      5-min Rain = 0
KDC1 110711Z 19002KT 04/03 A2994 RMK A01 T00440034  RH  093%=      5-min Rain = 0
KDC1 110712Z 20001KT 04/03 A2994 RMK A01 T00420032  RH  093%=      5-min Rain = 0
KDC1 110713Z 19002KT 04/03 A2994 RMK A01 T00410032  RH  094%=      5-min Rain = 0
KDC1 110714Z 18003KT 04/03 A2994 RMK A01 T00410032  RH  094%=      5-min Rain = 0
KDC1 110715Z 19002KT 04/03 A2994 RMK A01 T00400032  RH  094%=      5-min Rain = 0
KDC1 110716Z 18002KT 04/03 A2994 RMK A01 T00400033  RH  095%=      5-min Rain = 0
KDC1 110717Z 20003KT 04/03 A2994 RMK A01 T00400033  RH  095%=      5-min Rain = 0
KDC1 110718Z 21003KT 04/04 A2994 RMK A01 T00420035  RH  096%=      5-min Rain = 0
KDC1 110719Z 21002KT 04/04 A2994 RMK A01 T00430037  RH  096%=      5-min Rain = 0
KDC1 110720Z 21003KT 04/04 A2993 RMK A01 T00440038  RH  096%=      5-min Rain = 0
KDC1 110721Z 22003KT 05/04 A2993 RMK A01 T00450039  RH  096%=      5-min Rain = 0
KDC1 110722Z 22003KT 05/04 A2993 RMK A01 T00470042  RH  096%=      5-min Rain = 0
KDC1 110723Z 22003KT 05/04 A2993 RMK A01 T00480042  RH  096%=      5-min Rain = 0
KDC1 110724Z 22003KT 05/04 A2993 RMK A01 T00480042  RH  096%=      5-min Rain = 0
KDC1 110725Z 23003KT 05/04 A2993 RMK A01 T00490042  RH  095%=      5-min Rain = 0
KDC1 110726Z 23002KT 05/04 A2993 RMK A01 T00490042  RH  095%=      5-min Rain = 0
KDC1 110727Z 25001KT 05/04 A2993 RMK A01 T00490041  RH  094%=      5-min Rain = 0
KDC1 110728Z 25002KT 05/04 A2993 RMK A01 T00470038  RH  094%=      5-min Rain = 0
KDC1 110729Z 26001KT 05/04 A2993 RMK A01 T00450035  RH  094%=      5-min Rain = 0
KDC1 110730Z 26001KT 04/03 A2993 RMK A01 T00430034  RH  094%=      5-min Rain = 0
KDC1 110731Z 23001KT 04/03 A2992 RMK A01 T00430034  RH  094%=      5-min Rain = 0
KDC1 110732Z 23000KT 04/03 A2992 RMK A01 T00420034  RH  094%=      5-min Rain = 0
KDC1 110733Z 00000KT 04/03 A2992 RMK A01 T00420034  RH  095%=      5-min Rain = 0
KDC1 110734Z 09000KT 04/03 A2992 RMK A01 T00410034  RH  095%=      5-min Rain = 0
KDC1 110735Z 10003KT 04/03 A2992 RMK A01 T00410033  RH  095%=      5-min Rain = 0
KDC1 110736Z 11002KT 04/03 A2992 RMK A01 T00400032  RH  095%=      5-min Rain = 0
KDC1 110737Z 11003KT 04/03 A2992 RMK A01 T00400033  RH  095%=      5-min Rain = 0
KDC1 110738Z 12003KT 04/03 A2992 RMK A01 T00400033  RH  095%=      5-min Rain = 0
KDC1 110739Z 12002KT 04/03 A2992 RMK A01 T00390033  RH  096%=      5-min Rain = 0
KDC1 110740Z 12002KT 04/03 A2992 RMK A01 T00400034  RH  096%=      5-min Rain = 0
KDC1 110741Z 11002KT 04/03 A2992 RMK A01 T00390034  RH  096%=      5-min Rain = 0
KDC1 110742Z 09002KT 04/03 A2992 RMK A01 T00390033  RH  096%=      5-min Rain = 0
KDC1 110743Z 07001KT 04/03 A2992 RMK A01 T00380032  RH  096%=      5-min Rain = 0
KDC1 110744Z 10001KT 04/03 A2992 RMK A01 T00380032  RH  096%=      5-min Rain = 0
KDC1 110745Z 10000KT 04/03 A2992 RMK A01 T00370032  RH  096%=      5-min Rain = 0
KDC1 110746Z 00000KT 04/03 A2992 RMK A01 T00370032  RH  096%=      5-min Rain = 0
KDC1 110747Z 00000KT 04/03 A2992 RMK A01 T00370032  RH  096%=      5-min Rain = 0
KDC1 110748Z 00000KT 04/03 A2992 RMK A01 T00370032  RH  097%=      5-min Rain = 0
KDC1 110749Z 00000KT 04/03 A2992 RMK A01 T00370033  RH  097%=      5-min Rain = 0
KDC1 110750Z 00000KT 04/03 A2992 RMK A01 T00380033  RH  097%=      5-min Rain = 0
KDC1 110751Z 00000KT 04/03 A2992 RMK A01 T00380034  RH  097%=      5-min Rain = 0
KDC1 110752Z 00000KT 04/03 A2992 RMK A01 T00390034  RH  097%=      5-min Rain = 0
KDC1 110753Z 00000KT 04/03 A2992 RMK A01 T00380034  RH  097%=      5-min Rain = 0
KDC1 110754Z 00000KT 04/03 A2992 RMK A01 T00370033  RH  097%=      5-min Rain = 0
KDC1 110755Z 00000KT 04/03 A2992 RMK A01 T00380034  RH  097%=      5-min Rain = 0
KDC1 110756Z 00000KT 04/04 A2992 RMK A01 T00400036  RH  097%=      5-min Rain = 0
KDC1 110757Z 00000KT 04/04 A2992 RMK A01 T00400037  RH  097%=      5-min Rain = 0
KDC1 110758Z 00000KT 04/04 A2991 RMK A01 T00410037  RH  097%=      5-min Rain = 0
KDC1 110759Z 00000KT 04/04 A2991 RMK A01 T00410037  RH  097%=      5-min Rain = 0
KDC1 110800Z 00000KT 04/04 A2991 RMK A01 T00410037  RH  097%=      5-min Rain = 0
KDC1 110801Z 00000KT 04/04 A2991 RMK A01 T00420038  RH  097%=      5-min Rain = 0
KDC1 110802Z 00000KT 04/04 A2991 RMK A01 T00420039  RH  098%=      5-min Rain = 0
KDC1 110803Z 00000KT 04/04 A2992 RMK A01 T00430039  RH  098%=      5-min Rain = 0
KDC1 110804Z 00000KT 04/04 A2992 RMK A01 T00430040  RH  098%=      5-min Rain = 0
KDC1 110805Z 00000KT 04/04 A2991 RMK A01 T00440040  RH  098%=      5-min Rain = 0
KDC1 110806Z 00000KT 05/04 A2991 RMK A01 T00450041  RH  098%=      5-min Rain = 0
KDC1 110807Z 31000KT 05/04 A2991 RMK A01 T00450042  RH  098%=      5-min Rain = 0
KDC1 110808Z 30001KT 05/04 A2991 RMK A01 T00450042  RH  098%=      5-min Rain = 0
KDC1 110809Z 29000KT 05/04 A2992 RMK A01 T00450042  RH  098%=      5-min Rain = 0
KDC1 110810Z 00000KT 05/04 A2992 RMK A01 T00450042  RH  097%=      5-min Rain = 0
KDC1 110811Z 28000KT 05/04 A2992 RMK A01 T00450042  RH  097%=      5-min Rain = 0
KDC1 110812Z 27000KT 05/04 A2992 RMK A01 T00450041  RH  097%=      5-min Rain = 0
KDC1 110813Z 00000KT 04/04 A2992 RMK A01 T00440040  RH  097%=      5-min Rain = 0
KDC1 110814Z 00000KT 04/04 A2991 RMK A01 T00440039  RH  097%=      5-min Rain = 0
KDC1 110815Z 29000KT 04/04 A2992 RMK A01 T00430039  RH  097%=      5-min Rain = 0
KDC1 110816Z 30001KT 04/04 A2992 RMK A01 T00430039  RH  097%=      5-min Rain = 0
KDC1 110817Z 33000KT 04/04 A2991 RMK A01 T00440039  RH  097%=      5-min Rain = 0
KDC1 110818Z 34000KT 04/04 A2991 RMK A01 T00440039  RH  097%=      5-min Rain = 0
KDC1 110819Z 00000KT 04/04 A2991 RMK A01 T00440039  RH  097%=      5-min Rain = 0
KDC1 110820Z 00000KT 04/04 A2991 RMK A01 T00430039  RH  097%=      5-min Rain = 0
KDC1 110821Z 00000KT 04/04 A2991 RMK A01 T00430039  RH  097%=      5-min Rain = 0
KDC1 110822Z 00000KT 04/04 A2991 RMK A01 T00430038  RH  097%=      5-min Rain = 0
KDC1 110823Z 02000KT 04/04 A2991 RMK A01 T00430038  RH  097%=      5-min Rain = 0
KDC1 110824Z 02001KT 04/04 A2991 RMK A01 T00430038  RH  097%=      5-min Rain = 0
KDC1 110825Z 02001KT 04/04 A2991 RMK A01 T00430039  RH  097%=      5-min Rain = 0
KDC1 110826Z 00000KT 04/04 A2991 RMK A01 T00440040  RH  097%=      5-min Rain = 0
KDC1 110827Z 33000KT 04/04 A2991 RMK A01 T00440040  RH  097%=      5-min Rain = 0
KDC1 110828Z 30001KT 05/04 A2991 RMK A01 T00450042  RH  097%=      5-min Rain = 0
KDC1 110829Z 30001KT 05/04 A2991 RMK A01 T00460043  RH  097%=      5-min Rain = 0
KDC1 110830Z 29001KT 05/04 A2991 RMK A01 T00470043  RH  097%=      5-min Rain = 0
KDC1 110831Z 28001KT 05/04 A2991 RMK A01 T00480043  RH  097%=      5-min Rain = 0
KDC1 110832Z 27000KT 05/04 A2991 RMK A01 T00480042  RH  096%=      5-min Rain = 0
KDC1 110833Z 00000KT 05/04 A2991 RMK A01 T00480042  RH  096%=      5-min Rain = 0
KDC1 110834Z 00000KT 05/04 A2991 RMK A01 T00470041  RH  095%=      5-min Rain = 0
KDC1 110835Z 00000KT 05/04 A2991 RMK A01 T00470040  RH  095%=      5-min Rain = 0
KDC1 110836Z 33001KT 05/04 A2991 RMK A01 T00450038  RH  095%=      5-min Rain = 0
KDC1 110837Z 35002KT 04/04 A2991 RMK A01 T00440037  RH  095%=      5-min Rain = 0
KDC1 110838Z 00002KT 04/04 A2991 RMK A01 T00430036  RH  095%=      5-min Rain = 0
KDC1 110839Z 02002KT 04/04 A2991 RMK A01 T00440037  RH  095%=      5-min Rain = 0
KDC1 110840Z 03002KT 04/04 A2991 RMK A01 T00430037  RH  095%=      5-min Rain = 0
KDC1 110841Z 04002KT 04/04 A2991 RMK A01 T00430037  RH  096%=      5-min Rain = 0
KDC1 110842Z 04002KT 04/04 A2991 RMK A01 T00430037  RH  096%=      5-min Rain = 0
KDC1 110843Z 03001KT 04/04 A2991 RMK A01 T00430037  RH  096%=      5-min Rain = 0
KDC1 110844Z 00000KT 04/04 A2991 RMK A01 T00430037  RH  096%=      5-min Rain = 0
KDC1 110845Z 00000KT 04/04 A2991 RMK A01 T00430037  RH  096%=      5-min Rain = 0
KDC1 110846Z 00000KT 04/04 A2991 RMK A01 T00430037  RH  096%=      5-min Rain = 0
KDC1 110847Z 00000KT 04/04 A2991 RMK A01 T00430038  RH  096%=      5-min Rain = 0
KDC1 110848Z 14001KT 04/04 A2991 RMK A01 T00440039  RH  096%=      5-min Rain = 0
KDC1 110849Z 10003KT 04/04 A2991 RMK A01 T00440039  RH  096%=      5-min Rain = 0
KDC1 110850Z 11003KT 04/04 A2991 RMK A01 T00440038  RH  096%=      5-min Rain = 0
KDC1 110851Z 10004KT 04/04 A2991 RMK A01 T00430037  RH  096%=      5-min Rain = 0
KDC1 110852Z 10004KT 04/04 A2991 RMK A01 T00430036  RH  096%=      5-min Rain = 0
KDC1 110853Z 10005KT 04/04 A2991 RMK A01 T00420035  RH  095%=      5-min Rain = 0
KDC1 110854Z 10005KT 04/03 A2991 RMK A01 T00410034  RH  095%=      5-min Rain = 0
KDC1 110855Z 10005KT 04/03 A2991 RMK A01 T00400034  RH  095%=      5-min Rain = 0
KDC1 110856Z 10004KT 04/03 A2991 RMK A01 T00400033  RH  095%=      5-min Rain = 0
KDC1 110857Z 10004KT 04/03 A2991 RMK A01 T00400033  RH  096%=      5-min Rain = 0
KDC1 110858Z 10003KT 04/03 A2991 RMK A01 T00390033  RH  096%=      5-min Rain = 0
KDC1 110859Z 10002KT 04/03 A2991 RMK A01 T00390033  RH  096%=      5-min Rain = 0
KDC1 110900Z 08002KT 04/03 A2991 RMK A01 T00390033  RH  096%=      5-min Rain = 0
KDC1 110901Z 09002KT 04/03 A2991 RMK A01 T00390033  RH  096%=      5-min Rain = 0
KDC1 110902Z 10002KT 04/03 A2991 RMK A01 T00380032  RH  096%=      5-min Rain = 0
KDC1 110903Z 10003KT 04/03 A2991 RMK A01 T00380033  RH  096%=      5-min Rain = 0
KDC1 110904Z 11002KT 04/03 A2991 RMK A01 T00380032  RH  096%=      5-min Rain = 0
KDC1 110905Z 10003KT 04/03 A2991 RMK A01 T00380032  RH  096%=      5-min Rain = 0
KDC1 110906Z 10004KT 04/03 A2991 RMK A01 T00370031  RH  096%=      5-min Rain = 0
KDC1 110907Z 08004KT 04/03 A2991 RMK A01 T00370031  RH  096%=      5-min Rain = 0
KDC1 110908Z 08004KT 04/03 A299 RMK A01 T00370031  RH  096%=      5-min Rain = 0
KDC1 110909Z 07004KT 04/03 A299 RMK A01 T00370032  RH  096%=      5-min Rain = 0
KDC1 110910Z 07003KT 04/03 A299 RMK A01 T00370032  RH  096%=      5-min Rain = 0
KDC1 110911Z 08003KT 04/03 A299 RMK A01 T00370032  RH  096%=      5-min Rain = 0
KDC1 110912Z 08002KT 04/03 A299 RMK A01 T00380032  RH  096%=      5-min Rain = 0
KDC1 110913Z 06002KT 04/03 A299 RMK A01 T00380033  RH  096%=      5-min Rain = 0
KDC1 110914Z 07002KT 04/03 A299 RMK A01 T00380033  RH  097%=      5-min Rain = 0
KDC1 110915Z 06003KT 04/03 A299 RMK A01 T00380033  RH  097%=      5-min Rain = 0
KDC1 110916Z 05002KT 04/03 A299 RMK A01 T00380033  RH  097%=      5-min Rain = 0
KDC1 110917Z 05002KT 04/03 A299 RMK A01 T00380033  RH  097%=      5-min Rain = 0
KDC1 110918Z 05002KT 04/03 A299 RMK A01 T00380033  RH  096%=      5-min Rain = 0
KDC1 110919Z 05001KT 04/03 A299 RMK A01 T00380033  RH  096%=      5-min Rain = 0
KDC1 110920Z 07001KT 04/03 A299 RMK A01 T00380033  RH  096%=      5-min Rain = 0
KDC1 110921Z 07001KT 04/03 A299 RMK A01 T00380033  RH  096%=      5-min Rain = 0
KDC1 110922Z 07001KT 04/03 A299 RMK A01 T00380033  RH  096%=      5-min Rain = 0
KDC1 110923Z 07000KT 04/03 A299 RMK A01 T00380033  RH  096%=      5-min Rain = 0
KDC1 110924Z 05000KT 04/03 A299 RMK A01 T00380033  RH  096%=      5-min Rain = 0
KDC1 110925Z 05001KT 04/03 A299 RMK A01 T00380033  RH  097%=      5-min Rain = 0
KDC1 110926Z 04001KT 04/03 A299 RMK A01 T00380033  RH  097%=      5-min Rain = 0
KDC1 110927Z 04001KT 04/03 A299 RMK A01 T00380033  RH  097%=      5-min Rain = 0
KDC1 110928Z 03001KT 04/03 A299 RMK A01 T00380033  RH  097%=      5-min Rain = 0
KDC1 110929Z 03001KT 04/03 A299 RMK A01 T00380033  RH  097%=      5-min Rain = 0
KDC1 110930Z 03001KT 04/03 A299 RMK A01 T00380033  RH  097%=      5-min Rain = 0
KDC1 110931Z 05000KT 04/03 A299 RMK A01 T00380033  RH  097%=      5-min Rain = 0
KDC1 110932Z 08001KT 04/03 A299 RMK A01 T00380033  RH  097%=      5-min Rain = 0
KDC1 110933Z 09001KT 04/03 A299 RMK A01 T00380033  RH  097%=      5-min Rain = 0
KDC1 110934Z 10001KT 04/03 A299 RMK A01 T00380033  RH  097%=      5-min Rain = 0
KDC1 110935Z 10002KT 04/03 A299 RMK A01 T00380033  RH  097%=      5-min Rain = 0
KDC1 110936Z 11002KT 04/03 A299 RMK A01 T00390034  RH  097%=      5-min Rain = 0
KDC1 110937Z 11002KT 04/03 A299 RMK A01 T00390034  RH  097%=      5-min Rain = 0
KDC1 110938Z 12002KT 04/03 A299 RMK A01 T00380033  RH  097%=      5-min Rain = 0
KDC1 110939Z 12002KT 04/03 A299 RMK A01 T00390033  RH  097%=      5-min Rain = 0
KDC1 110940Z 12002KT 04/03 A299 RMK A01 T00380033  RH  097%=      5-min Rain = 0
KDC1 110941Z 12001KT 04/03 A299 RMK A01 T00390034  RH  097%=      5-min Rain = 0
KDC1 110942Z 12002KT 04/03 A299 RMK A01 T00380033  RH  097%=      5-min Rain = 0
KDC1 110943Z 13002KT 04/03 A299 RMK A01 T00380033  RH  097%=      5-min Rain = 0
KDC1 110944Z 13002KT 04/03 A299 RMK A01 T00380033  RH  097%=      5-min Rain = 0
KDC1 110945Z 12002KT 04/03 A299 RMK A01 T00380033  RH  097%=      5-min Rain = 0
KDC1 110946Z 12002KT 04/03 A299 RMK A01 T00380033  RH  097%=      5-min Rain = 0
KDC1 110947Z 11002KT 04/03 A299 RMK A01 T00380033  RH  097%=      5-min Rain = 0
KDC1 110948Z 10001KT 04/03 A299 RMK A01 T00380033  RH  097%=      5-min Rain = 0
KDC1 110949Z 08001KT 04/03 A299 RMK A01 T00380033  RH  097%=      5-min Rain = 0
KDC1 110950Z 06001KT 04/03 A299 RMK A01 T00380033  RH  097%=      5-min Rain = 0
KDC1 110951Z 06000KT 04/03 A299 RMK A01 T00380033  RH  097%=      5-min Rain = 0
KDC1 110952Z 07001KT 04/03 A299 RMK A01 T00380033  RH  097%=      5-min Rain = 0
KDC1 110953Z 10001KT 04/03 A299 RMK A01 T00380033  RH  097%=      5-min Rain = 0
KDC1 110954Z 10001KT 04/03 A299 RMK A01 T00380033  RH  097%=      5-min Rain = 0
KDC1 110955Z 10001KT 04/03 A299 RMK A01 T00380033  RH  097%=      5-min Rain = 0
KDC1 110956Z 09001KT 04/03 A299 RMK A01 T00380033  RH  097%=      5-min Rain = 0
KDC1 110957Z 08001KT 04/03 A299 RMK A01 T00380034  RH  097%=      5-min Rain = 0
KDC1 110958Z 08001KT 04/03 A299 RMK A01 T00380033  RH  097%=      5-min Rain = 0
KDC1 110959Z 08001KT 04/03 A299 RMK A01 T00380033  RH  097%=      5-min Rain = 0
KDC1 111000Z 08000KT 04/03 A299 RMK A01 T00380034  RH  097%=      5-min Rain = 0
KDC1 111001Z 09001KT 04/03 A299 RMK A01 T00380033  RH  097%=      5-min Rain = 0
KDC1 111002Z 10001KT 04/03 A299 RMK A01 T00380033  RH  097%=      5-min Rain = 0
KDC1 111003Z 11001KT 04/03 A299 RMK A01 T00380034  RH  097%=      5-min Rain = 0
KDC1 111004Z 11001KT 04/03 A299 RMK A01 T00380033  RH  097%=      5-min Rain = 0
KDC1 111005Z 11002KT 04/03 A299 RMK A01 T00380033  RH  097%=      5-min Rain = 0
KDC1 111006Z 12002KT 04/03 A299 RMK A01 T00390034  RH  097%=      5-min Rain = 0
KDC1 111007Z 12002KT 04/03 A299 RMK A01 T00390034  RH  097%=      5-min Rain = 0
KDC1 111008Z 12002KT 04/03 A299 RMK A01 T00390034  RH  097%=      5-min Rain = 0
KDC1 111009Z 13002KT 04/03 A299 RMK A01 T00390034  RH  097%=      5-min Rain = 0
KDC1 111010Z 13002KT 04/03 A299 RMK A01 T00390034  RH  097%=      5-min Rain = 0
KDC1 111011Z 13002KT 04/03 A299 RMK A01 T00390034  RH  097%=      5-min Rain = 0
KDC1 111012Z 12002KT 04/03 A299 RMK A01 T00390034  RH  097%=      5-min Rain = 0
KDC1 111013Z 12001KT 04/03 A299 RMK A01 T00390034  RH  097%=      5-min Rain = 0
KDC1 111014Z 12001KT 04/03 A299 RMK A01 T00390034  RH  097%=      5-min Rain = 0
KDC1 111015Z 10001KT 04/03 A2989 RMK A01 T00390034  RH  097%=      5-min Rain = 0
KDC1 111016Z 08001KT 04/03 A2989 RMK A01 T00390034  RH  097%=      5-min Rain = 0
KDC1 111017Z 00000KT 04/03 A2989 RMK A01 T00390034  RH  096%=      5-min Rain = 0
KDC1 111018Z 07000KT 04/03 A2989 RMK A01 T00390034  RH  096%=      5-min Rain = 0
KDC1 111019Z 07000KT 04/03 A2989 RMK A01 T00390034  RH  096%=      5-min Rain = 0
KDC1 111020Z 00000KT 04/03 A299 RMK A01 T00390034  RH  096%=      5-min Rain = 0
KDC1 111021Z 00000KT 04/03 A2989 RMK A01 T00390034  RH  096%=      5-min Rain = 0
KDC1 111022Z 03000KT 04/03 A2989 RMK A01 T00390034  RH  096%=      5-min Rain = 0
KDC1 111023Z 03001KT 04/03 A2989 RMK A01 T00390034  RH  096%=      5-min Rain = 0
KDC1 111024Z 36001KT 04/03 A2989 RMK A01 T00390034  RH  096%=      5-min Rain = 0
KDC1 111025Z 31001KT 04/03 A2989 RMK A01 T00390034  RH  096%=      5-min Rain = 0
KDC1 111026Z 33001KT 04/03 A2989 RMK A01 T00390034  RH  096%=      5-min Rain = 0
KDC1 111027Z 35002KT 04/03 A2989 RMK A01 T00400034  RH  096%=      5-min Rain = 0
KDC1 111028Z 02003KT 04/04 A2989 RMK A01 T00400035  RH  096%=      5-min Rain = 0
KDC1 111029Z 02003KT 04/04 A2989 RMK A01 T00400035  RH  096%=      5-min Rain = 0
KDC1 111030Z 01003KT 04/03 A2989 RMK A01 T00400034  RH  096%=      5-min Rain = 0
KDC1 111031Z 34002KT 04/03 A2989 RMK A01 T00400034  RH  096%=      5-min Rain = 0
KDC1 111032Z 34002KT 04/04 A2989 RMK A01 T00400035  RH  096%=      5-min Rain = 0
KDC1 111033Z 35002KT 04/04 A2989 RMK A01 T00400035  RH  096%=      5-min Rain = 0
KDC1 111034Z 00002KT 04/04 A2988 RMK A01 T00410035  RH  096%=      5-min Rain = 0
KDC1 111035Z 36002KT 04/04 A2988 RMK A01 T00410035  RH  096%=      5-min Rain = 0
KDC1 111036Z 33002KT 04/04 A2988 RMK A01 T00410035  RH  096%=      5-min Rain = 0
KDC1 111037Z 34002KT 04/04 A2988 RMK A01 T00410035  RH  096%=      5-min Rain = 0
KDC1 111038Z 34002KT 04/04 A2988 RMK A01 T00410035  RH  096%=      5-min Rain = 0
KDC1 111039Z 33001KT 04/04 A2988 RMK A01 T00410035  RH  096%=      5-min Rain = 0
KDC1 111040Z 33002KT 04/04 A2988 RMK A01 T00410035  RH  096%=      5-min Rain = 0
KDC1 111041Z 33002KT 04/04 A2988 RMK A01 T00410035  RH  096%=      5-min Rain = 0
KDC1 111042Z 34002KT 04/04 A2988 RMK A01 T00410035  RH  096%=      5-min Rain = 0
KDC1 111043Z 36002KT 04/04 A2988 RMK A01 T00410035  RH  096%=      5-min Rain = 0
KDC1 111044Z 00002KT 04/04 A2988 RMK A01 T00410035  RH  096%=      5-min Rain = 0
KDC1 111045Z 01001KT 04/04 A2988 RMK A01 T00410035  RH  096%=      5-min Rain = 0
KDC1 111046Z 01000KT 04/04 A2988 RMK A01 T00410035  RH  096%=      5-min Rain = 0
KDC1 111047Z 29001KT 04/04 A2988 RMK A01 T00410035  RH  096%=      5-min Rain = 0
KDC1 111048Z 34002KT 04/04 A2988 RMK A01 T00410035  RH  096%=      5-min Rain = 0
KDC1 111049Z 34002KT 04/04 A2988 RMK A01 T00410036  RH  096%=      5-min Rain = 0
KDC1 111050Z 33001KT 04/04 A2988 RMK A01 T00410036  RH  096%=      5-min Rain = 0
KDC1 111051Z 34002KT 04/04 A2988 RMK A01 T00410036  RH  096%=      5-min Rain = 0
KDC1 111052Z 35002KT 04/04 A2988 RMK A01 T00410036  RH  096%=      5-min Rain = 0
KDC1 111053Z 35002KT 04/04 A2988 RMK A01 T00410036  RH  096%=      5-min Rain = 0
KDC1 111054Z 35002KT 04/04 A2987 RMK A01 T00410036  RH  096%=      5-min Rain = 0
KDC1 111055Z 35002KT 04/04 A2987 RMK A01 T00410036  RH  096%=      5-min Rain = 0
KDC1 111056Z 02002KT 04/04 A2987 RMK A01 T00410035  RH  096%=      5-min Rain = 0
KDC1 111057Z 10003KT 04/04 A2988 RMK A01 T00410035  RH  096%=      5-min Rain = 0
KDC1 111058Z 09002KT 04/04 A2988 RMK A01 T00420036  RH  096%=      5-min Rain = 0
KDC1 111059Z 01000KT 04/04 A2987 RMK A01 T00420036  RH  096%=      5-min Rain = 0
KDC1 111100Z 01001KT 04/04 A2987 RMK A01 T00420036  RH  096%=      5-min Rain = 0
KDC1 111101Z 02001KT 04/04 A2987 RMK A01 T00420036  RH  096%=      5-min Rain = 0
KDC1 111102Z 04001KT 04/04 A2987 RMK A01 T00420036  RH  096%=      5-min Rain = 0
KDC1 111103Z 02001KT 04/04 A2987 RMK A01 T00420036  RH  096%=      5-min Rain = 0
KDC1 111104Z 03001KT 04/04 A2987 RMK A01 T00420036  RH  096%=      5-min Rain = 0
KDC1 111105Z 03001KT 04/04 A2987 RMK A01 T00420036  RH  096%=      5-min Rain = 0
KDC1 111106Z 03001KT 04/04 A2987 RMK A01 T00420036  RH  096%=      5-min Rain = 0
KDC1 111107Z 03001KT 04/04 A2987 RMK A01 T00420036  RH  096%=      5-min Rain = 0
KDC1 111108Z 02001KT 04/04 A2987 RMK A01 T00420036  RH  096%=      5-min Rain = 0
KDC1 111109Z 01002KT 04/04 A2987 RMK A01 T00420036  RH  096%=      5-min Rain = 0
KDC1 111110Z 01002KT 04/04 A2987 RMK A01 T00420036  RH  096%=      5-min Rain = 0
KDC1 111111Z 00002KT 04/04 A2987 RMK A01 T00420036  RH  096%=      5-min Rain = 0
KDC1 111112Z 00002KT 04/04 A2987 RMK A01 T00420036  RH  096%=      5-min Rain = 0
KDC1 111113Z 35002KT 04/04 A2987 RMK A01 T00420037  RH  096%=      5-min Rain = 0
KDC1 111114Z 35003KT 04/04 A2988 RMK A01 T00420037  RH  096%=      5-min Rain = 0
KDC1 111115Z 35003KT 04/04 A2988 RMK A01 T00420036  RH  096%=      5-min Rain = 0
KDC1 111116Z 35003KT 04/04 A2988 RMK A01 T00420037  RH  096%=      5-min Rain = 0
KDC1 111117Z 35003KT 04/04 A2988 RMK A01 T00420037  RH  096%=      5-min Rain = 0
KDC1 111118Z 35003KT 04/04 A2988 RMK A01 T00420037  RH  096%=      5-min Rain = 0
KDC1 111119Z 34002KT 04/04 A2988 RMK A01 T00420037  RH  096%=      5-min Rain = 0
KDC1 111120Z 34002KT 04/04 A2988 RMK A01 T00430037  RH  096%=      5-min Rain = 0
KDC1 111121Z 34003KT 04/04 A2988 RMK A01 T00430038  RH  096%=      5-min Rain = 0
KDC1 111122Z 34003KT 04/04 A2988 RMK A01 T00430038  RH  096%=      5-min Rain = 0
KDC1 111123Z 35004KT 04/04 A2987 RMK A01 T00430038  RH  096%=      5-min Rain = 0
KDC1 111124Z 35005KT 04/04 A2988 RMK A01 T00440038  RH  096%=      5-min Rain = 0
KDC1 111125Z 34004KT 04/04 A2988 RMK A01 T00440038  RH  096%=      5-min Rain = 0
KDC1 111126Z 34004KT 04/04 A2988 RMK A01 T00440038  RH  096%=      5-min Rain = 0
KDC1 111127Z 35004KT 04/04 A2988 RMK A01 T00440039  RH  097%=      5-min Rain = 0
KDC1 111128Z 35004KT 04/04 A2988 RMK A01 T00440038  RH  097%=      5-min Rain = 0
KDC1 111129Z 35003KT 04/04 A2988 RMK A01 T00430038  RH  096%=      5-min Rain = 0
KDC1 111130Z 01002KT 04/04 A2987 RMK A01 T00430038  RH  096%=      5-min Rain = 0
KDC1 111131Z 03001KT 04/04 A2987 RMK A01 T00430038  RH  096%=      5-min Rain = 0
KDC1 111132Z 03001KT 04/04 A2987 RMK A01 T00440038  RH  096%=      5-min Rain = 0
KDC1 111133Z 03001KT 04/04 A2987 RMK A01 T00440039  RH  096%=      5-min Rain = 0
KDC1 111134Z 02001KT 04/04 A2987 RMK A01 T00440039  RH  096%=      5-min Rain = 0
KDC1 111135Z 00002KT 04/04 A2988 RMK A01 T00440039  RH  096%=      5-min Rain = 0
KDC1 111136Z 35002KT 04/04 A2988 RMK A01 T00440039  RH  096%=      5-min Rain = 0
KDC1 111137Z 35001KT 05/04 A2988 RMK A01 T00450039  RH  096%=      5-min Rain = 0
KDC1 111138Z 35000KT 05/04 A2988 RMK A01 T00450039  RH  096%=      5-min Rain = 0
KDC1 111139Z 13001KT 05/04 A2987 RMK A01 T00450039  RH  096%=      5-min Rain = 0
KDC1 111140Z 13002KT 05/04 A2987 RMK A01 T00450040  RH  096%=      5-min Rain = 0
KDC1 111141Z 14001KT 05/04 A2987 RMK A01 T00450040  RH  096%=      5-min Rain = 0
KDC1 111142Z 14000KT 05/04 A2987 RMK A01 T00450040  RH  096%=      5-min Rain = 0
KDC1 111143Z 00000KT 05/04 A2987 RMK A01 T00450040  RH  096%=      5-min Rain = 0
KDC1 111144Z 00000KT 05/04 A2987 RMK A01 T00450040  RH  096%=      5-min Rain = 0
KDC1 111145Z 00000KT 05/04 A2987 RMK A01 T00460040  RH  096%=      5-min Rain = 0
KDC1 111146Z 00000KT 05/04 A2987 RMK A01 T00450040  RH  096%=      5-min Rain = 0
KDC1 111147Z 07001KT 05/04 A2987 RMK A01 T00450040  RH  096%=      5-min Rain = 0
KDC1 111148Z 07001KT 05/04 A2987 RMK A01 T00450040  RH  096%=      5-min Rain = 0
KDC1 111149Z 07000KT 05/04 A2987 RMK A01 T00450040  RH  096%=      5-min Rain = 0
KDC1 111150Z 00000KT 05/04 A2987 RMK A01 T00450039  RH  096%=      5-min Rain = 0
KDC1 111151Z 07000KT 05/04 A2987 RMK A01 T00450040  RH  096%=      5-min Rain = 0
KDC1 111152Z 07001KT 05/04 A2986 RMK A01 T00450040  RH  096%=      5-min Rain = 0
KDC1 111153Z 06002KT 05/04 A2986 RMK A01 T00450040  RH  096%=      5-min Rain = 0
KDC1 111154Z 06002KT 05/04 A2986 RMK A01 T00460040  RH  096%=      5-min Rain = 0
KDC1 111155Z 06000KT 05/04 A2986 RMK A01 T00460041  RH  096%=      5-min Rain = 0
KDC1 111156Z 00000KT 05/04 A2986 RMK A01 T00460041  RH  096%=      5-min Rain = 0
KDC1 111157Z 14000KT 05/04 A2986 RMK A01 T00460041  RH  096%=      5-min Rain = 0
KDC1 111158Z 12001KT 05/04 A2986 RMK A01 T00460040  RH  096%=      5-min Rain = 0
KDC1 111159Z 12001KT 05/04 A2986 RMK A01 T00460040  RH  096%=      5-min Rain = 0
KDC1 111200Z 16001KT 05/04 A2986 RMK A01 T00460040  RH  096%=      5-min Rain = 0
KDC1 111201Z 18001KT 05/04 A2986 RMK A01 T00460040  RH  096%=      5-min Rain = 0
KDC1 111202Z 16001KT 05/04 A2986 RMK A01 T00460040  RH  096%=      5-min Rain = 0
KDC1 111203Z 14001KT 05/04 A2986 RMK A01 T00460040  RH  096%=      5-min Rain = 0
KDC1 111204Z 14001KT 05/04 A2986 RMK A01 T00460040  RH  096%=      5-min Rain = 0
KDC1 111205Z 15000KT 05/04 A2986 RMK A01 T00460040  RH  096%=      5-min Rain = 0
KDC1 111206Z 20000KT 05/04 A2986 RMK A01 T00460040  RH  096%=      5-min Rain = 0
KDC1 111207Z 21001KT 05/04 A2986 RMK A01 T00460040  RH  096%=      5-min Rain = 0
KDC1 111208Z 17001KT 05/04 A2986 RMK A01 T00470040  RH  096%=      5-min Rain = 0
KDC1 111209Z 16002KT 05/04 A2986 RMK A01 T00460040  RH  096%=      5-min Rain = 0
KDC1 111210Z 17003KT 05/04 A2986 RMK A01 T00470040  RH  096%=      5-min Rain = 0
KDC1 111211Z 15003KT 05/04 A2986 RMK A01 T00470040  RH  096%=      5-min Rain = 0
KDC1 111212Z 16003KT 05/04 A2986 RMK A01 T00470040  RH  095%=      5-min Rain = 0
KDC1 111213Z 17003KT 05/04 A2986 RMK A01 T00470040  RH  095%=      5-min Rain = 0
KDC1 111214Z 18003KT 05/04 A2986 RMK A01 T00480040  RH  095%=      5-min Rain = 0
KDC1 111215Z 18002KT 05/04 A2986 RMK A01 T00480040  RH  095%=      5-min Rain = 0
KDC1 111216Z 17001KT 05/04 A2986 RMK A01 T00470040  RH  095%=      5-min Rain = 0
KDC1 111217Z 15002KT 05/04 A2986 RMK A01 T00480040  RH  095%=      5-min Rain = 0
KDC1 111218Z 15002KT 05/04 A2986 RMK A01 T00480041  RH  095%=      5-min Rain = 0
KDC1 111219Z 17002KT 05/04 A2986 RMK A01 T00480041  RH  095%=      5-min Rain = 0
KDC1 111220Z 20000KT 05/04 A2986 RMK A01 T00480040  RH  095%=      5-min Rain = 0
KDC1 111221Z 26000KT 05/04 A2986 RMK A01 T00480041  RH  095%=      5-min Rain = 0
KDC1 111222Z 32000KT 05/04 A2986 RMK A01 T00480041  RH  095%=      5-min Rain = 0
KDC1 111223Z 00000KT 05/04 A2986 RMK A01 T00480041  RH  095%=      5-min Rain = 0
KDC1 111224Z 00000KT 05/04 A2986 RMK A01 T00480041  RH  095%=      5-min Rain = 0
KDC1 111225Z 13000KT 05/04 A2986 RMK A01 T00480040  RH  095%=      5-min Rain = 0
KDC1 111226Z 20000KT 05/04 A2986 RMK A01 T00480040  RH  095%=      5-min Rain = 0
KDC1 111227Z 17000KT 05/04 A2986 RMK A01 T00480041  RH  095%=      5-min Rain = 0
KDC1 111228Z 18002KT 05/04 A2986 RMK A01 T00480041  RH  095%=      5-min Rain = 0
KDC1 111229Z 17002KT 05/04 A2986 RMK A01 T00480040  RH  095%=      5-min Rain = 0
KDC1 111230Z 17002KT 05/04 A2986 RMK A01 T00480040  RH  095%=      5-min Rain = 0
KDC1 111231Z 17004KT 05/04 A2986 RMK A01 T00480040  RH  095%=      5-min Rain = 0
KDC1 111232Z 17003KT 05/04 A2986 RMK A01 T00480040  RH  094%=      5-min Rain = 0
KDC1 111233Z 17002KT 05/04 A2986 RMK A01 T00490040  RH  094%=      5-min Rain = 0
KDC1 111234Z 18002KT 05/04 A2986 RMK A01 T00490039  RH  094%=      5-min Rain = 0
KDC1 111235Z 19002KT 05/04 A2986 RMK A01 T00490039  RH  094%=      5-min Rain = 0
KDC1 111236Z 19001KT 05/04 A2986 RMK A01 T00490039  RH  094%=      5-min Rain = 0
KDC1 111237Z 20001KT 05/04 A2986 RMK A01 T00490039  RH  094%=      5-min Rain = 0
KDC1 111238Z 19001KT 05/04 A2986 RMK A01 T00490039  RH  094%=      5-min Rain = 0
KDC1 111239Z 16000KT 05/04 A2986 RMK A01 T00490039  RH  094%=      5-min Rain = 0
KDC1 111240Z 17001KT 05/04 A2986 RMK A01 T00490039  RH  094%=      5-min Rain = 0
KDC1 111241Z 18001KT 05/04 A2986 RMK A01 T00490040  RH  094%=      5-min Rain = 0
KDC1 111242Z 18001KT 05/04 A2986 RMK A01 T00490040  RH  094%=      5-min Rain = 0
KDC1 111243Z 18000KT 05/04 A2986 RMK A01 T00480039  RH  094%=      5-min Rain = 0
KDC1 111244Z 00000KT 05/04 A2986 RMK A01 T00480039  RH  094%=      5-min Rain = 0
KDC1 111245Z 00000KT 05/04 A2986 RMK A01 T00480039  RH  094%=      5-min Rain = 0
KDC1 111246Z 00000KT 05/04 A2986 RMK A01 T00480039  RH  094%=      5-min Rain = 0
KDC1 111247Z 33000KT 05/04 A2986 RMK A01 T00480039  RH  094%=      5-min Rain = 0
KDC1 111248Z 30000KT 05/04 A2986 RMK A01 T00480040  RH  094%=      5-min Rain = 0
KDC1 111249Z 29000KT 05/04 A2986 RMK A01 T00480040  RH  094%=      5-min Rain = 0
KDC1 111250Z 24001KT 05/04 A2986 RMK A01 T00480040  RH  095%=      5-min Rain = 0
KDC1 111251Z 20000KT 05/04 A2986 RMK A01 T00480040  RH  095%=      5-min Rain = 0
KDC1 111252Z 00000KT 05/04 A2986 RMK A01 T00480040  RH  095%=      5-min Rain = 0
KDC1 111253Z 18000KT 05/04 A2986 RMK A01 T00480040  RH  095%=      5-min Rain = 0
KDC1 111254Z 18001KT 05/04 A2986 RMK A01 T00480040  RH  095%=      5-min Rain = 0
KDC1 111255Z 18002KT 05/04 A2986 RMK A01 T00480040  RH  095%=      5-min Rain = 0
KDC1 111256Z 19002KT 05/04 A2987 RMK A01 T00480040  RH  095%=      5-min Rain = 0
KDC1 111257Z 18002KT 05/04 A2987 RMK A01 T00480040  RH  095%=      5-min Rain = 0
KDC1 111258Z 18001KT 05/04 A2987 RMK A01 T00480040  RH  095%=      5-min Rain = 0
KDC1 111259Z 19001KT 05/04 A2987 RMK A01 T00480040  RH  095%=      5-min Rain = 0
KDC1 111300Z 00000KT 05/04 A2987 RMK A01 T00480040  RH  095%=      5-min Rain = 0
KDC1 111301Z 00000KT 05/04 A2987 RMK A01 T00470039  RH  095%=      5-min Rain = 0
KDC1 111302Z 35000KT 05/04 A2987 RMK A01 T00470039  RH  095%=      5-min Rain = 0
KDC1 111303Z 36001KT 05/04 A2987 RMK A01 T00480040  RH  095%=      5-min Rain = 0
KDC1 111304Z 36002KT 05/04 A2987 RMK A01 T00480040  RH  094%=      5-min Rain = 0
KDC1 111305Z 35003KT 05/04 A2987 RMK A01 T00480039  RH  094%=      5-min Rain = 0
KDC1 111306Z 34004KT 05/04 A2987 RMK A01 T00470039  RH  095%=      5-min Rain = 0
KDC1 111307Z 35004KT 05/04 A2987 RMK A01 T00480040  RH  095%=      5-min Rain = 0
KDC1 111308Z 35004KT 05/04 A2987 RMK A01 T00470040  RH  095%=      5-min Rain = 0
KDC1 111309Z 34004KT 05/04 A2987 RMK A01 T00470040  RH  095%=      5-min Rain = 0
KDC1 111310Z 35003KT 05/04 A2987 RMK A01 T00470039  RH  095%=      5-min Rain = 0
KDC1 111311Z 35003KT 05/04 A2987 RMK A01 T00470039  RH  095%=      5-min Rain = 0
KDC1 111312Z 35003KT 05/04 A2987 RMK A01 T00470039  RH  095%=      5-min Rain = 0
KDC1 111313Z 34003KT 05/04 A2987 RMK A01 T00470039  RH  095%=      5-min Rain = 0
KDC1 111314Z 34003KT 05/04 A2987 RMK A01 T00460039  RH  095%=      5-min Rain = 0
KDC1 111315Z 34003KT 05/04 A2987 RMK A01 T00460039  RH  095%=      5-min Rain = 0
KDC1 111316Z 34003KT 05/04 A2987 RMK A01 T00460039  RH  095%=      5-min Rain = 0
KDC1 111317Z 35004KT 05/04 A2987 RMK A01 T00460039  RH  095%=      5-min Rain = 0
KDC1 111318Z 35003KT 05/04 A2987 RMK A01 T00460039  RH  095%=      5-min Rain = 0
KDC1 111319Z 35003KT 05/04 A2987 RMK A01 T00460039  RH  095%=      5-min Rain = 0
KDC1 111320Z 35003KT 05/04 A2987 RMK A01 T00460039  RH  095%=      5-min Rain = 0
KDC1 111321Z 35003KT 05/04 A2987 RMK A01 T00460039  RH  095%=      5-min Rain = 0
KDC1 111322Z 35003KT 05/04 A2987 RMK A01 T00460039  RH  095%=      5-min Rain = 0
KDC1 111323Z 35003KT 05/04 A2987 RMK A01 T00460039  RH  095%=      5-min Rain = 0
KDC1 111324Z 34003KT 05/04 A2987 RMK A01 T00460039  RH  095%=      5-min Rain = 0
KDC1 111325Z 35002KT 05/04 A2987 RMK A01 T00460039  RH  095%=      5-min Rain = 0
KDC1 111326Z 35002KT 05/04 A2987 RMK A01 T00460039  RH  095%=      5-min Rain = 0
KDC1 111327Z 36002KT 05/04 A2987 RMK A01 T00460039  RH  095%=      5-min Rain = 0
KDC1 111328Z 36003KT 05/04 A2987 RMK A01 T00460039  RH  095%=      5-min Rain = 0
KDC1 111329Z 35003KT 05/04 A2987 RMK A01 T00460039  RH  095%=      5-min Rain = 0
KDC1 111330Z 35003KT 05/04 A2987 RMK A01 T00460039  RH  095%=      5-min Rain = 0
KDC1 111331Z 36004KT 05/04 A2987 RMK A01 T00460039  RH  095%=      5-min Rain = 0
KDC1 111332Z 36004KT 05/04 A2987 RMK A01 T00460039  RH  095%=      5-min Rain = 0
KDC1 111333Z 36004KT 05/04 A2987 RMK A01 T00460040  RH  095%=      5-min Rain = 0
KDC1 111334Z 36004KT 05/04 A2987 RMK A01 T00460039  RH  095%=      5-min Rain = 0
KDC1 111335Z 00004KT 05/04 A2987 RMK A01 T00460039  RH  095%=      5-min Rain = 0
KDC1 111336Z 00003KT 05/04 A2987 RMK A01 T00460040  RH  096%=      5-min Rain = 0
KDC1 111337Z 36003KT 05/04 A2987 RMK A01 T00460040  RH  096%=      5-min Rain = 0
KDC1 111338Z 35003KT 05/04 A2987 RMK A01 T00460040  RH  096%=      5-min Rain = 0
KDC1 111339Z 35003KT 05/04 A2987 RMK A01 T00460040  RH  096%=      5-min Rain = 0
KDC1 111340Z 35003KT 05/04 A2987 RMK A01 T00460040  RH  096%=      5-min Rain = 0
KDC1 111341Z 36002KT 05/04 A2987 RMK A01 T00460040  RH  096%=      5-min Rain = 0
KDC1 111342Z 36000KT 05/04 A2987 RMK A01 T00460040  RH  096%=      5-min Rain = 0
KDC1 111343Z 00000KT 05/04 A2987 RMK A01 T00460040  RH  096%=      5-min Rain = 0
KDC1 111344Z 00000KT 05/04 A2987 RMK A01 T00460040  RH  096%=      5-min Rain = 0
KDC1 111345Z 00000KT 05/04 A2987 RMK A01 T00460040  RH  096%=      5-min Rain = 0
KDC1 111346Z 00000KT 05/04 A2988 RMK A01 T00460040  RH  096%=      5-min Rain = 0
KDC1 111347Z 00000KT 05/04 A2988 RMK A01 T00460040  RH  096%=      5-min Rain = 0
KDC1 111348Z 00000KT 05/04 A2988 RMK A01 T00460040  RH  096%=      5-min Rain = 0
KDC1 111349Z 00000KT 05/04 A2988 RMK A01 T00460040  RH  096%=      5-min Rain = 0
KDC1 111350Z 00000KT 05/04 A2988 RMK A01 T00460040  RH  096%=      5-min Rain = 0
KDC1 111351Z 00000KT 05/04 A2988 RMK A01 T00460040  RH  096%=      5-min Rain = 0
KDC1 111352Z 17001KT 05/04 A2988 RMK A01 T00460040  RH  096%=      5-min Rain = 0
KDC1 111353Z 17002KT 05/04 A2989 RMK A01 T00460040  RH  096%=      5-min Rain = 0
KDC1 111354Z 17002KT 05/04 A2989 RMK A01 T00460040  RH  096%=      5-min Rain = 0
KDC1 111355Z 17002KT 05/04 A2989 RMK A01 T00460040  RH  096%=      5-min Rain = 0
KDC1 111356Z 17003KT 05/04 A2989 RMK A01 T00460040  RH  096%=      5-min Rain = 0
KDC1 111357Z 18002KT 05/04 A2989 RMK A01 T00460040  RH  096%=      5-min Rain = 0
KDC1 111358Z 18002KT 05/04 A2989 RMK A01 T00460040  RH  096%=      5-min Rain = 0
KDC1 111359Z 20001KT 05/04 A2989 RMK A01 T00460041  RH  096%=      5-min Rain = 0
KDC1 111400Z 21001KT 05/04 A2988 RMK A01 T00460040  RH  096%=      5-min Rain = 0
KDC1 111401Z 21001KT 05/04 A2988 RMK A01 T00460041  RH  096%=      5-min Rain = 0
KDC1 111402Z 23001KT 05/04 A2988 RMK A01 T00470041  RH  096%=      5-min Rain = 0
KDC1 111403Z 25001KT 05/04 A2988 RMK A01 T00470041  RH  096%=      5-min Rain = 0
KDC1 111404Z 26001KT 05/04 A2988 RMK A01 T00470041  RH  096%=      5-min Rain = 0
KDC1 111405Z 26000KT 05/04 A2988 RMK A01 T00480041  RH  096%=      5-min Rain = 0
KDC1 111406Z 28000KT 05/04 A2988 RMK A01 T00480042  RH  096%=      5-min Rain = 0
KDC1 111407Z 26001KT 05/04 A2989 RMK A01 T00480042  RH  096%=      5-min Rain = 0
KDC1 111408Z 00000KT 05/04 A2989 RMK A01 T00480041  RH  096%=      5-min Rain = 0
KDC1 111409Z 00000KT 05/04 A2989 RMK A01 T00480042  RH  096%=      5-min Rain = 0
KDC1 111410Z 00000KT 05/04 A2989 RMK A01 T00480041  RH  095%=      5-min Rain = 0
KDC1 111411Z 00000KT 05/04 A2989 RMK A01 T00480042  RH  096%=      5-min Rain = 0
KDC1 111412Z 16000KT 05/04 A2989 RMK A01 T00480041  RH  095%=      5-min Rain = 0
KDC1 111413Z 15001KT 05/04 A2989 RMK A01 T00480042  RH  095%=      5-min Rain = 0
KDC1 111414Z 13001KT 05/04 A2989 RMK A01 T00480041  RH  096%=      5-min Rain = 0
KDC1 111415Z 14001KT 05/04 A2989 RMK A01 T00480042  RH  096%=      5-min Rain = 0
KDC1 111416Z 14001KT 05/04 A2989 RMK A01 T00480042  RH  096%=      5-min Rain = 0
KDC1 111417Z 15001KT 05/04 A2989 RMK A01 T00480042  RH  096%=      5-min Rain = 0
KDC1 111418Z 17001KT 05/04 A2989 RMK A01 T00480042  RH  096%=      5-min Rain = 0
KDC1 111419Z 17000KT 05/04 A2989 RMK A01 T00480042  RH  096%=      5-min Rain = 0
KDC1 111420Z 00000KT 05/04 A2988 RMK A01 T00480042  RH  096%=      5-min Rain = 0
KDC1 111421Z 00000KT 05/04 A2988 RMK A01 T00480042  RH  096%=      5-min Rain = 0
KDC1 111422Z 00000KT 05/04 A2989 RMK A01 T00480042  RH  096%=      5-min Rain = 0
KDC1 111423Z 00000KT 05/04 A2988 RMK A01 T00480042  RH  096%=      5-min Rain = 0
KDC1 111424Z 00000KT 05/04 A2988 RMK A01 T00480042  RH  096%=      5-min Rain = 0
KDC1 111425Z 00000KT 05/04 A2988 RMK A01 T00480042  RH  096%=      5-min Rain = 0
KDC1 111426Z 00000KT 05/04 A2988 RMK A01 T00480042  RH  096%=      5-min Rain = 0
KDC1 111427Z 00000KT 05/04 A2988 RMK A01 T00480042  RH  096%=      5-min Rain = 0
KDC1 111428Z 00000KT 05/04 A2988 RMK A01 T00490042  RH  095%=      5-min Rain = 0
KDC1 111429Z 18001KT 05/04 A2988 RMK A01 T00480042  RH  095%=      5-min Rain = 0
KDC1 111430Z 18001KT 05/04 A2988 RMK A01 T00490042  RH  095%=      5-min Rain = 0
KDC1 111431Z 17002KT 05/04 A2988 RMK A01 T00490042  RH  095%=      5-min Rain = 0
KDC1 111432Z 17002KT 05/04 A2988 RMK A01 T00480042  RH  095%=      5-min Rain = 0
KDC1 111433Z 17002KT 05/04 A2988 RMK A01 T00480041  RH  095%=      5-min Rain = 0
KDC1 111434Z 17002KT 05/04 A2988 RMK A01 T00490041  RH  095%=      5-min Rain = 0
KDC1 111435Z 17002KT 05/04 A2988 RMK A01 T00480041  RH  095%=      5-min Rain = 0
KDC1 111436Z 18001KT 05/04 A2988 RMK A01 T00490042  RH  095%=      5-min Rain = 0
KDC1 111437Z 20001KT 05/04 A2988 RMK A01 T00490042  RH  095%=      5-min Rain = 0
KDC1 111438Z 23000KT 05/04 A2988 RMK A01 T00480042  RH  095%=      5-min Rain = 0
KDC1 111439Z 31000KT 05/04 A2988 RMK A01 T00490042  RH  095%=      5-min Rain = 0
KDC1 111440Z 29000KT 05/04 A2988 RMK A01 T00490042  RH  095%=      5-min Rain = 0
KDC1 111441Z 00000KT 05/04 A2988 RMK A01 T00490042  RH  095%=      5-min Rain = 0
KDC1 111442Z 00000KT 05/04 A2988 RMK A01 T00490042  RH  095%=      5-min Rain = 0
KDC1 111443Z 00000KT 05/04 A2988 RMK A01 T00490042  RH  095%=      5-min Rain = 0
KDC1 111444Z 00000KT 05/04 A2988 RMK A01 T00490043  RH  096%=      5-min Rain = 0
KDC1 111445Z 34000KT 05/04 A2988 RMK A01 T00490043  RH  096%=      5-min Rain = 0
KDC1 111446Z 33000KT 05/04 A2988 RMK A01 T00490043  RH  096%=      5-min Rain = 0
KDC1 111447Z 00000KT 05/04 A2988 RMK A01 T00490043  RH  096%=      5-min Rain = 0
KDC1 111448Z 33000KT 05/04 A2988 RMK A01 T00500043  RH  096%=      5-min Rain = 0
KDC1 111449Z 33001KT 05/04 A2988 RMK A01 T00500043  RH  096%=      5-min Rain = 0
KDC1 111450Z 33001KT 05/04 A2988 RMK A01 T00500043  RH  096%=      5-min Rain = 0
KDC1 111451Z 33001KT 05/04 A2988 RMK A01 T00500043  RH  096%=      5-min Rain = 0
KDC1 111452Z 33000KT 05/04 A2988 RMK A01 T00500044  RH  096%=      5-min Rain = 0
KDC1 111453Z 00000KT 05/04 A2988 RMK A01 T00500044  RH  096%=      5-min Rain = 0
KDC1 111454Z 00000KT 05/04 A2988 RMK A01 T00500044  RH  096%=      5-min Rain = 0
KDC1 111455Z 00000KT 05/04 A2988 RMK A01 T00510044  RH  096%=      5-min Rain = 0
KDC1 111456Z 00000KT 05/04 A2988 RMK A01 T00500044  RH  096%=      5-min Rain = 0
KDC1 111457Z 33001KT 05/04 A2988 RMK A01 T00500044  RH  096%=      5-min Rain = 0
KDC1 111458Z 35002KT 05/04 A2989 RMK A01 T00500044  RH  096%=      5-min Rain = 0
KDC1 111459Z 35003KT 05/04 A2989 RMK A01 T00500044  RH  096%=      5-min Rain = 0
KDC1 111500Z 36004KT 05/04 A2989 RMK A01 T00500044  RH  096%=      5-min Rain = 0
KDC1 111501Z 35005KT 05/04 A2989 RMK A01 T00500044  RH  096%=      5-min Rain = 0
KDC1 111502Z 36004KT 05/04 A2989 RMK A01 T00500044  RH  095%=      5-min Rain = 0
KDC1 111503Z 36004KT 05/04 A2989 RMK A01 T00510044  RH  095%=      5-min Rain = 0
KDC1 111504Z 35003KT 05/04 A299 RMK A01 T00500044  RH  095%=      5-min Rain = 0
KDC1 111505Z 34002KT 05/04 A299 RMK A01 T00500043  RH  095%=      5-min Rain = 0
KDC1 111506Z 35002KT 05/04 A2989 RMK A01 T00500044  RH  095%=      5-min Rain = 0
KDC1 111507Z 35003KT 05/04 A299 RMK A01 T00510043  RH  095%=      5-min Rain = 0
KDC1 111508Z 00003KT 05/04 A299 RMK A01 T00500043  RH  095%=      5-min Rain = 0
KDC1 111509Z 00003KT 05/04 A299 RMK A01 T00500043  RH  095%=      5-min Rain = 0
KDC1 111510Z 01003KT 05/04 A299 RMK A01 T00500043  RH  095%=      5-min Rain = 0
KDC1 111511Z 01003KT 05/04 A299 RMK A01 T00510043  RH  095%=      5-min Rain = 0
KDC1 111512Z 01002KT 05/04 A299 RMK A01 T00510043  RH  095%=      5-min Rain = 0
KDC1 111513Z 02002KT 05/04 A299 RMK A01 T00510043  RH  095%=      5-min Rain = 0
KDC1 111514Z 02002KT 05/04 A299 RMK A01 T00510044  RH  095%=      5-min Rain = 0
KDC1 111515Z 02002KT 05/04 A299 RMK A01 T00510043  RH  095%=      5-min Rain = 0
KDC1 111516Z 02002KT 05/04 A299 RMK A01 T00510043  RH  094%=      5-min Rain = 0
KDC1 111517Z 03002KT 05/04 A299 RMK A01 T00520043  RH  094%=      5-min Rain = 0
KDC1 111518Z 03002KT 05/04 A299 RMK A01 T00520043  RH  094%=      5-min Rain = 0
KDC1 111519Z 05002KT 05/04 A2989 RMK A01 T00520044  RH  094%=      5-min Rain = 0
KDC1 111520Z 05003KT 05/04 A2989 RMK A01 T00530044  RH  094%=      5-min Rain = 0
KDC1 111521Z 04003KT 05/04 A2989 RMK A01 T00530044  RH  094%=      5-min Rain = 0
KDC1 111522Z 04003KT 05/04 A299 RMK A01 T00540044  RH  094%=      5-min Rain = 0
KDC1 111523Z 05003KT 05/04 A299 RMK A01 T00540044  RH  094%=      5-min Rain = 0
KDC1 111524Z 05003KT 05/04 A299 RMK A01 T00540044  RH  094%=      5-min Rain = 0
KDC1 111525Z 06004KT 05/05 A299 RMK A01 T00540045  RH  093%=      5-min Rain = 0
KDC1 111526Z 06003KT 05/04 A299 RMK A01 T00540044  RH  093%=      5-min Rain = 0
KDC1 111527Z 07004KT 06/05 A299 RMK A01 T00550045  RH  093%=      5-min Rain = 0
KDC1 111528Z 08003KT 06/05 A299 RMK A01 T00550045  RH  093%=      5-min Rain = 0
KDC1 111529Z 08003KT 06/05 A299 RMK A01 T00560045  RH  093%=      5-min Rain = 0
KDC1 111530Z 09003KT 06/05 A299 RMK A01 T00560046  RH  093%=      5-min Rain = 0
KDC1 111531Z 10003KT 06/05 A299 RMK A01 T00570047  RH  093%=      5-min Rain = 0
KDC1 111532Z 10003KT 06/05 A299 RMK A01 T00570047  RH  093%=      5-min Rain = 0
KDC1 111533Z 10004KT 06/05 A299 RMK A01 T00580048  RH  093%=      5-min Rain = 0
KDC1 111534Z 10003KT 06/05 A299 RMK A01 T00580048  RH  093%=      5-min Rain = 0
KDC1 111535Z 10003KT 06/05 A299 RMK A01 T00590049  RH  093%=      5-min Rain = 0
KDC1 111536Z 10003KT 06/05 A299 RMK A01 T00600049  RH  093%=      5-min Rain = 0
KDC1 111537Z 08002KT 06/05 A299 RMK A01 T00600049  RH  092%=      5-min Rain = 0
KDC1 111538Z 08002KT 06/05 A299 RMK A01 T00610049  RH  092%=      5-min Rain = 0
KDC1 111539Z 08003KT 06/05 A299 RMK A01 T00620049  RH  092%=      5-min Rain = 0
KDC1 111540Z 09003KT 06/05 A299 RMK A01 T00620049  RH  091%=      5-min Rain = 0
KDC1 111541Z 10003KT 06/05 A299 RMK A01 T00620049  RH  091%=      5-min Rain = 0
KDC1 111542Z 10003KT 06/05 A299 RMK A01 T00630050  RH  091%=      5-min Rain = 0
KDC1 111543Z 10004KT 06/05 A299 RMK A01 T00640050  RH  091%=      5-min Rain = 0
KDC1 111544Z 10004KT 06/05 A299 RMK A01 T00640049  RH  091%=      5-min Rain = 0
KDC1 111545Z 10004KT 06/05 A299 RMK A01 T00640050  RH  090%=      5-min Rain = 0
KDC1 111546Z 11004KT 07/05 A299 RMK A01 T00650050  RH  090%=      5-min Rain = 0
KDC1 111547Z 11004KT 07/05 A299 RMK A01 T00650051  RH  091%=      5-min Rain = 0
KDC1 111548Z 11004KT 07/05 A299 RMK A01 T00660052  RH  091%=      5-min Rain = 0
KDC1 111549Z 12003KT 07/05 A299 RMK A01 T00670052  RH  091%=      5-min Rain = 0
KDC1 111550Z 11003KT 07/05 A299 RMK A01 T00680054  RH  091%=      5-min Rain = 0
KDC1 111551Z 10003KT 07/05 A299 RMK A01 T00690054  RH  090%=      5-min Rain = 0
KDC1 111552Z 11003KT 07/05 A299 RMK A01 T00690054  RH  090%=      5-min Rain = 0
KDC1 111553Z 11003KT 07/05 A299 RMK A01 T00690054  RH  090%=      5-min Rain = 0
KDC1 111554Z 11004KT 07/05 A299 RMK A01 T00700054  RH  090%=      5-min Rain = 0
KDC1 111555Z 12004KT 07/06 A299 RMK A01 T00700055  RH  090%=      5-min Rain = 0
KDC1 111556Z 12004KT 07/06 A299 RMK A01 T00710056  RH  090%=      5-min Rain = 0
KDC1 111557Z 12004KT 07/06 A299 RMK A01 T00720056  RH  090%=      5-min Rain = 0
KDC1 111558Z 12003KT 07/06 A299 RMK A01 T00720055  RH  089%=      5-min Rain = 0
KDC1 111559Z 12003KT 07/06 A299 RMK A01 T00720055  RH  089%=      5-min Rain = 0
KDC1 111600Z 11002KT 07/06 A2989 RMK A01 T00720055  RH  089%=      5-min Rain = 0
KDC1 111601Z 12002KT 07/06 A299 RMK A01 T00730056  RH  089%=      5-min Rain = 0
KDC1 111602Z 11002KT 07/06 A299 RMK A01 T00740057  RH  089%=      5-min Rain = 0
KDC1 111603Z 11002KT 07/06 A2989 RMK A01 T00740056  RH  088%=      5-min Rain = 0
KDC1 111604Z 11002KT 08/06 A2989 RMK A01 T00750057  RH  088%=      5-min Rain = 0
KDC1 111605Z 12002KT 08/06 A2989 RMK A01 T00760057  RH  088%=      5-min Rain = 0
KDC1 111606Z 11002KT 08/06 A299 RMK A01 T00760056  RH  088%=      5-min Rain = 0
KDC1 111607Z 12002KT 08/06 A2989 RMK A01 T00760056  RH  087%=      5-min Rain = 0
KDC1 111608Z 13002KT 08/06 A2989 RMK A01 T00760056  RH  087%=      5-min Rain = 0
KDC1 111609Z 12003KT 08/06 A2989 RMK A01 T00770056  RH  087%=      5-min Rain = 0
KDC1 111610Z 14003KT 08/06 A2989 RMK A01 T00770056  RH  087%=      5-min Rain = 0
KDC1 111611Z 13002KT 08/06 A2989 RMK A01 T00780059  RH  088%=      5-min Rain = 0
KDC1 111612Z 13003KT 08/06 A2989 RMK A01 T00780058  RH  087%=      5-min Rain = 0
KDC1 111613Z 12002KT 08/06 A2989 RMK A01 T00790057  RH  086%=      5-min Rain = 0
KDC1 111614Z 12003KT 08/06 A2989 RMK A01 T00790058  RH  086%=      5-min Rain = 0
KDC1 111615Z 12003KT 08/06 A2989 RMK A01 T00790057  RH  086%=      5-min Rain = 0
KDC1 111616Z 12003KT 08/06 A2989 RMK A01 T00790057  RH  086%=      5-min Rain = 0
KDC1 111617Z 11003KT 08/06 A2989 RMK A01 T00790057  RH  086%=      5-min Rain = 0
KDC1 111618Z 11003KT 08/06 A2989 RMK A01 T00800057  RH  086%=      5-min Rain = 0
KDC1 111619Z 11003KT 08/06 A2989 RMK A01 T00800059  RH  086%=      5-min Rain = 0
KDC1 111620Z 10003KT 08/06 A2989 RMK A01 T00810060  RH  087%=      5-min Rain = 0
KDC1 111621Z 09003KT 08/06 A2988 RMK A01 T00810060  RH  086%=      5-min Rain = 0
KDC1 111622Z 09003KT 08/06 A2988 RMK A01 T00810059  RH  086%=      5-min Rain = 0
KDC1 111623Z 10003KT 08/06 A2988 RMK A01 T00810059  RH  086%=      5-min Rain = 0
KDC1 111624Z 11003KT 08/06 A2988 RMK A01 T00810060  RH  086%=      5-min Rain = 0
KDC1 111625Z 10003KT 08/06 A2988 RMK A01 T00810060  RH  087%=      5-min Rain = 0
KDC1 111626Z 10003KT 08/06 A2988 RMK A01 T00820059  RH  086%=      5-min Rain = 0
KDC1 111627Z 09004KT 08/06 A2988 RMK A01 T00810059  RH  086%=      5-min Rain = 0
KDC1 111628Z 09004KT 08/06 A2988 RMK A01 T00820058  RH  085%=      5-min Rain = 0
KDC1 111629Z 09004KT 08/06 A2988 RMK A01 T00820058  RH  085%=      5-min Rain = 0
KDC1 111630Z 09004KT 08/06 A2988 RMK A01 T00820058  RH  085%=      5-min Rain = 0
KDC1 111631Z 09004KT 08/06 A2988 RMK A01 T00830059  RH  085%=      5-min Rain = 0
KDC1 111632Z 09003KT 08/06 A2988 RMK A01 T00840060  RH  085%=      5-min Rain = 0
KDC1 111633Z 08003KT 08/06 A2988 RMK A01 T00840059  RH  084%=      5-min Rain = 0
KDC1 111634Z 07004KT 09/06 A2988 RMK A01 T00860061  RH  085%=      5-min Rain = 0
KDC1 111635Z 07004KT 09/06 A2988 RMK A01 T00860060  RH  084%=      5-min Rain = 0
KDC1 111636Z 07004KT 09/06 A2988 RMK A01 T00860059  RH  083%=      5-min Rain = 0
KDC1 111637Z 07003KT 09/06 A2988 RMK A01 T00860060  RH  084%=      5-min Rain = 0
KDC1 111638Z 07004KT 09/06 A2988 RMK A01 T00870062  RH  084%=      5-min Rain = 0
KDC1 111639Z 06005KT 09/06 A2988 RMK A01 T00890062  RH  083%=      5-min Rain = 0
KDC1 111640Z 06006KT 09/06 A2988 RMK A01 T00890060  RH  082%=      5-min Rain = 0
KDC1 111641Z 07005KT 09/06 A2988 RMK A01 T00890059  RH  082%=      5-min Rain = 0
KDC1 111642Z 07005KT 09/06 A2988 RMK A01 T00900060  RH  082%=      5-min Rain = 0
KDC1 111643Z 07005KT 09/06 A2988 RMK A01 T00900058  RH  080%=      5-min Rain = 0
KDC1 111644Z 07005KT 09/06 A2988 RMK A01 T00910061  RH  082%=      5-min Rain = 0
KDC1 111645Z 07006KT 09/06 A2988 RMK A01 T00920062  RH  081%=      5-min Rain = 0
KDC1 111646Z 07006KT 09/06 A2988 RMK A01 T00930062  RH  081%=      5-min Rain = 0
KDC1 111647Z 07006KT 09/06 A2988 RMK A01 T00930062  RH  081%=      5-min Rain = 0
KDC1 111648Z 08006KT 09/06 A2988 RMK A01 T00940064  RH  082%=      5-min Rain = 0
KDC1 111649Z 08006KT 09/06 A2988 RMK A01 T00940064  RH  081%=      5-min Rain = 0
KDC1 111650Z 08007KT 09/06 A2988 RMK A01 T00940062  RH  080%=      5-min Rain = 0
KDC1 111651Z 09005KT 09/06 A2988 RMK A01 T00940062  RH  080%=      5-min Rain = 0
KDC1 111652Z 09007KT 10/06 A2987 RMK A01 T00950061  RH  079%=      5-min Rain = 0
KDC1 111653Z 10005KT 10/06 A2987 RMK A01 T00960061  RH  079%=      5-min Rain = 0
KDC1 111654Z 10005KT 10/06 A2987 RMK A01 T00960059  RH  077%=      5-min Rain = 0
KDC1 111655Z 08006KT 10/06 A2987 RMK A01 T00970061  RH  079%=      5-min Rain = 0
KDC1 111656Z 09005KT 10/06 A2987 RMK A01 T00980062  RH  078%=      5-min Rain = 0
KDC1 111657Z 09004KT 10/06 A2987 RMK A01 T00980058  RH  076%=      5-min Rain = 0
KDC1 111658Z 11005KT 10/06 A2987 RMK A01 T00990061  RH  077%=      5-min Rain = 0
KDC1 111659Z 10003KT 10/06 A2987 RMK A01 T00990062  RH  077%=      5-min Rain = 0
KDC1 111700Z 10002KT 10/06 A2987 RMK A01 T01000062  RH  078%=      5-min Rain = 0
KDC1 111701Z 14001KT 10/06 A2988 RMK A01 T01010060  RH  076%=      5-min Rain = 0
KDC1 111702Z 25001KT 10/06 A2988 RMK A01 T01010060  RH  076%=      5-min Rain = 0
KDC1 111703Z 22002KT 10/06 A2988 RMK A01 T01020060  RH  075%=      5-min Rain = 0
KDC1 111704Z 15002KT 10/06 A2988 RMK A01 T01030060  RH  075%=      5-min Rain = 0
KDC1 111705Z 25006KT 10/06 A2987 RMK A01 T01030059  RH  074%=      5-min Rain = 0
KDC1 111706Z 25008G14KT 11/05 A2988 RMK A01 T01050052  RH  070%=      5-min Rain = 0
KDC1 111707Z 24010KT 11/05 A2987 RMK A01 T01120045  RH  063%=      5-min Rain = 0
KDC1 111708Z 25013KT 12/04 A2987 RMK A01 T01170042  RH  060%=      5-min Rain = 0
KDC1 111709Z 25015KT 12/04 A2987 RMK A01 T01200036  RH  056%=      5-min Rain = 0
KDC1 111710Z 25013KT 12/04 A2987 RMK A01 T01220035  RH  056%=      5-min Rain = 0
KDC1 111711Z 25011KT 12/04 A2987 RMK A01 T01220039  RH  057%=      5-min Rain = 0
KDC1 111712Z 25011KT 12/04 A2988 RMK A01 T01220038  RH  056%=      5-min Rain = 0
KDC1 111713Z 25014KT 12/04 A2988 RMK A01 T01220038  RH  056%=      5-min Rain = 0
KDC1 111714Z 26013KT 12/04 A2987 RMK A01 T01230037  RH  055%=      5-min Rain = 0
KDC1 111715Z 26014KT 13/04 A2987 RMK A01 T01250040  RH  056%=      5-min Rain = 0
KDC1 111716Z 25013KT 13/04 A2987 RMK A01 T01260038  RH  055%=      5-min Rain = 0
KDC1 111717Z 25015G20KT 13/04 A2987 RMK A01 T01260039  RH  055%=      5-min Rain = 0
KDC1 111718Z 25016KT 13/04 A2987 RMK A01 T01260035  RH  054%=      5-min Rain = 0
KDC1 111719Z 25016G21KT 13/04 A2987 RMK A01 T01260035  RH  054%=      5-min Rain = 0
KDC1 111720Z 25018KT 13/03 A2987 RMK A01 T01260033  RH  053%=      5-min Rain = 0
KDC1 111721Z 25016KT 13/03 A2987 RMK A01 T01260034  RH  054%=      5-min Rain = 0
KDC1 111722Z 25016G22KT 13/03 A2987 RMK A01 T01250034  RH  054%=      5-min Rain = 0
KDC1 111723Z 25018KT 13/03 A2987 RMK A01 T01260032  RH  053%=      5-min Rain = 0
KDC1 111724Z 24017KT 13/03 A2987 RMK A01 T01260032  RH  053%=      5-min Rain = 0
KDC1 111725Z 25014G19KT 13/04 A2987 RMK A01 T01270035  RH  053%=      5-min Rain = 0
KDC1 111726Z 25016KT 13/04 A2987 RMK A01 T01270035  RH  053%=      5-min Rain = 0
KDC1 111727Z 25018G25KT 13/03 A2987 RMK A01 T01280034  RH  053%=      5-min Rain = 0
KDC1 111728Z 24013KT 13/03 A2987 RMK A01 T01280033  RH  052%=      5-min Rain = 0
KDC1 111729Z 24015KT 13/04 A2987 RMK A01 T01280036  RH  053%=      5-min Rain = 0
KDC1 111730Z 25016KT 13/03 A2987 RMK A01 T01290033  RH  052%=      5-min Rain = 0
KDC1 111731Z 25017KT 13/03 A2987 RMK A01 T01310034  RH  052%=      5-min Rain = 0
KDC1 111732Z 25018KT 13/03 A2987 RMK A01 T01310034  RH  052%=      5-min Rain = 0
KDC1 111733Z 25012G17KT 13/04 A2987 RMK A01 T01310036  RH  053%=      5-min Rain = 0
KDC1 111734Z 24013G18KT 13/04 A2986 RMK A01 T01320038  RH  053%=      5-min Rain = 0
KDC1 111735Z 25018KT 13/04 A2986 RMK A01 T01320037  RH  053%=      5-min Rain = 0
KDC1 111736Z 25017G23KT 13/03 A2986 RMK A01 T01310033  RH  052%=      5-min Rain = 0
KDC1 111737Z 24012G18KT 13/04 A2986 RMK A01 T01300035  RH  053%=      5-min Rain = 0
KDC1 111738Z 25014KT 13/04 A2986 RMK A01 T01300036  RH  053%=      5-min Rain = 0
KDC1 111739Z 24013KT 13/04 A2986 RMK A01 T01300037  RH  053%=      5-min Rain = 0
KDC1 111740Z 25012G17KT 13/04 A2987 RMK A01 T01320038  RH  053%=      5-min Rain = 0
KDC1 111741Z 24014KT 13/04 A2987 RMK A01 T01320037  RH  052%=      5-min Rain = 0
KDC1 111742Z 25013KT 13/04 A2987 RMK A01 T01330037  RH  052%=      5-min Rain = 0
KDC1 111743Z 25014KT 13/04 A2987 RMK A01 T01330036  RH  052%=      5-min Rain = 0
KDC1 111744Z 23011G17KT 13/04 A2987 RMK A01 T01330038  RH  053%=      5-min Rain = 0
KDC1 111745Z 24015KT 13/04 A2987 RMK A01 T01330036  RH  052%=      5-min Rain = 0
KDC1 111746Z 25015G20KT 13/04 A2987 RMK A01 T01330035  RH  051%=      5-min Rain = 0
KDC1 111747Z 24010G15KT 13/04 A2987 RMK A01 T01330037  RH  052%=      5-min Rain = 0
KDC1 111748Z 23013KT 13/04 A2987 RMK A01 T01340036  RH  051%=      5-min Rain = 0
KDC1 111749Z 24013KT 13/04 A2987 RMK A01 T01340035  RH  051%=      5-min Rain = 0
KDC1 111750Z 23012KT 13/04 A2987 RMK A01 T01330035  RH  051%=      5-min Rain = 0
KDC1 111751Z 23013G19KT 13/04 A2986 RMK A01 T01330035  RH  051%=      5-min Rain = 0
KDC1 111752Z 23013KT 13/03 A2986 RMK A01 T01330033  RH  051%=      5-min Rain = 0
KDC1 111753Z 24010G16KT 13/03 A2986 RMK A01 T01330033  RH  051%=      5-min Rain = 0
KDC1 111754Z 24013KT 13/04 A2986 RMK A01 T01330035  RH  052%=      5-min Rain = 0
KDC1 111755Z 23013G23KT 13/04 A2987 RMK A01 T01330036  RH  052%=      5-min Rain = 0
KDC1 111756Z 24017G23KT 13/04 A2986 RMK A01 T01330035  RH  052%=      5-min Rain = 0
KDC1 111757Z 24016G22KT 13/03 A2986 RMK A01 T01340032  RH  050%=      5-min Rain = 0
KDC1 111758Z 23017G23KT 13/03 A2986 RMK A01 T01340033  RH  051%=      5-min Rain = 0
KDC1 111759Z 24019G24KT 13/03 A2986 RMK A01 T01340032  RH  050%=      5-min Rain = 0
KDC1 111800Z 25020G25KT 13/03 A2986 RMK A01 T01340030  RH  049%=      5-min Rain = 0
KDC1 111801Z 25020G27KT 13/03 A2986 RMK A01 T01320029  RH  050%=      5-min Rain = 0
KDC1 111802Z 24016G23KT 13/03 A2986 RMK A01 T01320033  RH  051%=      5-min Rain = 0
KDC1 111803Z 24014G20KT 13/03 A2986 RMK A01 T01340033  RH  050%=      5-min Rain = 0
KDC1 111804Z 24015G24KT 14/04 A2986 RMK A01 T01360035  RH  050%=      5-min Rain = 0
KDC1 111805Z 25019G26KT 14/03 A2986 RMK A01 T01370034  RH  050%=      5-min Rain = 0
KDC1 111806Z 25021KT 14/03 A2985 RMK A01 T01350032  RH  050%=      5-min Rain = 0
KDC1 111807Z 25024G29KT 13/03 A2985 RMK A01 T01340030  RH  049%=      5-min Rain = 0
KDC1 111808Z 24017G26KT 13/03 A2985 RMK A01 T01340030  RH  049%=      5-min Rain = 0
KDC1 111809Z 25022G31KT 14/03 A2985 RMK A01 T01370030  RH  048%=      5-min Rain = 0
KDC1 111810Z 25030G35KT 14/02 A2984 RMK A01 T01390023  RH  045%=      5-min Rain = 0
KDC1 111811Z 25024G30KT 14/03 A2985 RMK A01 T01380026  RH  047%=      5-min Rain = 0
KDC1 111812Z 26026G32KT 14/03 A2984 RMK A01 T01380026  RH  046%=      5-min Rain = 0
KDC1 111813Z 25027G34KT 14/03 A2984 RMK A01 T01390026  RH  046%=      5-min Rain = 0
KDC1 111814Z 25029G37KT 14/02 A2984 RMK A01 T01370019  RH  045%=      5-min Rain = 0
KDC1 111815Z 25026KT 13/02 A2984 RMK A01 T01340019  RH  046%=      5-min Rain = 0
KDC1 111816Z 25028G35KT 13/02 A2984 RMK A01 T01340018  RH  045%=      5-min Rain = 0
KDC1 111817Z 25030G35KT 14/02 A2984 RMK A01 T01350017  RH  045%=      5-min Rain = 0
KDC1 111818Z 24027G36KT 14/02 A2984 RMK A01 T01370016  RH  044%=      5-min Rain = 0
KDC1 111819Z 25023G36KT 14/02 A2984 RMK A01 T01380018  RH  044%=      5-min Rain = 0
KDC1 111820Z 25027G33KT 14/02 A2984 RMK A01 T01410021  RH  044%=      5-min Rain = 0
KDC1 111821Z 25024G32KT 14/02 A2984 RMK A01 T01410017  RH  043%=      5-min Rain = 0
KDC1 111822Z 25031KT 14/01 A2984 RMK A01 T01390005  RH  040%=      5-min Rain = 0
KDC1 111823Z 25028G34KT 14/00 A2984 RMK A01 T01360002  RH  040%=      5-min Rain = 0
KDC1 111824Z 25028G34KT 13/01 A2984 RMK A01 T01330008  RH  042%=      5-min Rain = 0
KDC1 111825Z 24026G33KT 13/01 A2984 RMK A01 T01330007  RH  042%=      5-min Rain = 0
KDC1 111826Z 24023G29KT 14/01 A2984 RMK A01 T01350010  RH  042%=      5-min Rain = 0
KDC1 111827Z 25024G31KT 14/02 A2984 RMK A01 T01380015  RH  043%=      5-min Rain = 0
KDC1 111828Z 25028G35KT 14/00 A2984 RMK A01 T01410003  RH  039%=      5-min Rain = 0
KDC1 111829Z 25023G29KT 14/M00 A2984 RMK A01 T01411001  RH  038%=      5-min Rain = 0
KDC1 111830Z 25031G36KT 14/00 A2984 RMK A01 T01390004  RH  039%=      5-min Rain = 0
KDC1 111831Z 25031G37KT 14/M00 A2984 RMK A01 T01381002  RH  038%=      5-min Rain = 0
KDC1 111832Z 25027G35KT 14/00 A2984 RMK A01 T01380003  RH  040%=      5-min Rain = 0
KDC1 111833Z 25024G30KT 14/01 A2984 RMK A01 T01390011  RH  042%=      5-min Rain = 0
KDC1 111834Z 25024G33KT 14/01 A2984 RMK A01 T01390012  RH  042%=      5-min Rain = 0
KDC1 111835Z 24021G29KT 14/01 A2985 RMK A01 T01390009  RH  041%=      5-min Rain = 0
KDC1 111836Z 26027G35KT 14/01 A2984 RMK A01 T01420010  RH  041%=      5-min Rain = 0
KDC1 111837Z 26030KT 14/00 A2984 RMK A01 T01430004  RH  039%=      5-min Rain = 0
KDC1 111838Z 25029G39KT 14/01 A2984 RMK A01 T01420011  RH  041%=      5-min Rain = 0
KDC1 111839Z 26032G39KT 14/01 A2984 RMK A01 T01420011  RH  041%=      5-min Rain = 0
KDC1 111840Z 25032KT 14/00 A2984 RMK A01 T01420002  RH  038%=      5-min Rain = 0
KDC1 111841Z 25029G35KT 14/00 A2984 RMK A01 T01410002  RH  038%=      5-min Rain = 0
KDC1 111842Z 25027G32KT 14/01 A2985 RMK A01 T01410006  RH  040%=      5-min Rain = 0
KDC1 111843Z 25026G34KT 14/00 A2984 RMK A01 T01410002  RH  038%=      5-min Rain = 0
KDC1 111844Z 25026G35KT 14/M00 A2984 RMK A01 T01431004  RH  036%=      5-min Rain = 0
KDC1 111845Z 25031G38KT 14/00 A2984 RMK A01 T01440000  RH  037%=      5-min Rain = 0
KDC1 111846Z 25030KT 14/00 A2984 RMK A01 T01430000  RH  038%=      5-min Rain = 0
KDC1 111847Z 25029G34KT 14/00 A2984 RMK A01 T014300-0  RH  037%=      5-min Rain = 0
KDC1 111848Z 25028G34KT 14/00 A2984 RMK A01 T01440003  RH  038%=      5-min Rain = 0
KDC1 111849Z 26034G40KT 15/M01 A2983 RMK A01 T01451008  RH  035%=      5-min Rain = 0
KDC1 111850Z 26030G35KT 15/M01 A2984 RMK A01 T01461012  RH  034%=      5-min Rain = 0
KDC1 111851Z 26033G38KT 15/M01 A2983 RMK A01 T01451012  RH  034%=      5-min Rain = 0
KDC1 111852Z 26030G36KT 15/M02 A2983 RMK A01 T01461020  RH  032%=      5-min Rain = 0
KDC1 111853Z 26030G36KT 15/M02 A2983 RMK A01 T01451015  RH  033%=      5-min Rain = 0
KDC1 111854Z 25031G36KT 15/M01 A2983 RMK A01 T01451013  RH  034%=      5-min Rain = 0
KDC1 111855Z 25033G41KT 15/M01 A2983 RMK A01 T01451010  RH  034%=      5-min Rain = 0
KDC1 111856Z 25029G35KT 15/M01 A2983 RMK A01 T01451009  RH  035%=      5-min Rain = 0
KDC1 111857Z 25028G33KT 15/M01 A2983 RMK A01 T01451008  RH  035%=      5-min Rain = 0
KDC1 111858Z 25027G33KT 15/M01 A2983 RMK A01 T01461009  RH  035%=      5-min Rain = 0
KDC1 111859Z 25022G31KT 15/M00 A2983 RMK A01 T01471004  RH  035%=      5-min Rain = 0
KDC1 111900Z 25028KT 15/M01 A2983 RMK A01 T01471008  RH  034%=      5-min Rain = 0
KDC1 111901Z 25027KT 15/M01 A2982 RMK A01 T01471013  RH  033%=      5-min Rain = 0
KDC1 111902Z 25027G34KT 15/M01 A2982 RMK A01 T01471010  RH  034%=      5-min Rain = 0
KDC1 111903Z 24023G30KT 15/M01 A2983 RMK A01 T01481011  RH  033%=      5-min Rain = 0
KDC1 111904Z 25028G34KT 15/M01 A2983 RMK A01 T01481010  RH  034%=      5-min Rain = 0
KDC1 111905Z 25021G27KT 15/M01 A2983 RMK A01 T01481009  RH  034%=      5-min Rain = 0
KDC1 111906Z 25027KT 15/M01 A2982 RMK A01 T01501009  RH  034%=      5-min Rain = 0
KDC1 111907Z 25030G38KT 15/M02 A2982 RMK A01 T01501018  RH  031%=      5-min Rain = 0
KDC1 111908Z 25032G37KT 15/M03 A2982 RMK A01 T01491033  RH  028%=      5-min Rain = 0
KDC1 111909Z 26034G42KT 15/M03 A2982 RMK A01 T01471031  RH  029%=      5-min Rain = 0
KDC1 111910Z 26029G36KT 15/M03 A2982 RMK A01 T01471027  RH  030%=      5-min Rain = 0
KDC1 111911Z 25035G41KT 15/M03 A2981 RMK A01 T01491026  RH  030%=      5-min Rain = 0
KDC1 111912Z 26033G40KT 15/M03 A2981 RMK A01 T01471032  RH  029%=      5-min Rain = 0
KDC1 111913Z 27034G39KT 15/M03 A2981 RMK A01 T01471027  RH  030%=      5-min Rain = 0
KDC1 111914Z 26033KT 15/M02 A2981 RMK A01 T01491023  RH  030%=      5-min Rain = 0
KDC1 111915Z 26031G41KT 15/M03 A2982 RMK A01 T01511027  RH  029%=      5-min Rain = 0
KDC1 111916Z 25036G43KT 15/M03 A2981 RMK A01 T01491030  RH  029%=      5-min Rain = 0
KDC1 111917Z 25030G35KT 15/M03 A2982 RMK A01 T01471029  RH  030%=      5-min Rain = 0
KDC1 111918Z 25027KT 15/M03 A2982 RMK A01 T01471028  RH  030%=      5-min Rain = 0
KDC1 111919Z 25035KT 15/M03 A2981 RMK A01 T01491028  RH  029%=      5-min Rain = 0
KDC1 111920Z 25034G39KT 15/M04 A2982 RMK A01 T01491036  RH  028%=      5-min Rain = 0
KDC1 111921Z 25030G36KT 15/M04 A2981 RMK A01 T01471036  RH  028%=      5-min Rain = 0
KDC1 111922Z 25028G36KT 15/M03 A2981 RMK A01 T01471033  RH  029%=      5-min Rain = 0
KDC1 111923Z 25027G35KT 15/M03 A2981 RMK A01 T01481032  RH  029%=      5-min Rain = 0
KDC1 111924Z 25023G34KT 15/M03 A2982 RMK A01 T01491029  RH  029%=      5-min Rain = 0
KDC1 111925Z 25029G35KT 15/M03 A2982 RMK A01 T01511030  RH  028%=      5-min Rain = 0
KDC1 111926Z 24029G39KT 15/M03 A2981 RMK A01 T01511032  RH  028%=      5-min Rain = 0
KDC1 111927Z 26032G42KT 15/M04 A2981 RMK A01 T01501035  RH  028%=      5-min Rain = 0
KDC1 111928Z 26034G40KT 15/M04 A2981 RMK A01 T01481039  RH  027%=      5-min Rain = 0
KDC1 111929Z 25035G42KT 15/M04 A2981 RMK A01 T01461037  RH  028%=      5-min Rain = 0
KDC1 111930Z 26034G42KT 15/M04 A2981 RMK A01 T01461037  RH  028%=      5-min Rain = 0
KDC1 111931Z 25032G38KT 15/M04 A2981 RMK A01 T01461039  RH  028%=      5-min Rain = 0
KDC1 111932Z 25028KT 15/M04 A2981 RMK A01 T01461039  RH  028%=      5-min Rain = 0
KDC1 111933Z 25023G31KT 15/M04 A2981 RMK A01 T01461037  RH  028%=      5-min Rain = 0
KDC1 111934Z 25033G38KT 15/M03 A2981 RMK A01 T01501033  RH  028%=      5-min Rain = 0
KDC1 111935Z 25030G38KT 15/M04 A2981 RMK A01 T01501037  RH  027%=      5-min Rain = 0
KDC1 111936Z 25032G38KT 15/M04 A2981 RMK A01 T01501039  RH  027%=      5-min Rain = 0
KDC1 111937Z 26032G39KT 15/M04 A2981 RMK A01 T01491037  RH  027%=      5-min Rain = 0
KDC1 111938Z 26027G38KT 15/M04 A2981 RMK A01 T01491036  RH  028%=      5-min Rain = 0
KDC1 111939Z 25027G35KT 15/M03 A2981 RMK A01 T01521032  RH  028%=      5-min Rain = 0
KDC1 111940Z 25031G37KT 15/M04 A2981 RMK A01 T01521037  RH  027%=      5-min Rain = 0
KDC1 111941Z 25026G36KT 15/M04 A2981 RMK A01 T01501039  RH  027%=      5-min Rain = 0
KDC1 111942Z 25027G34KT 15/M04 A2981 RMK A01 T01491039  RH  027%=      5-min Rain = 0
KDC1 111943Z 25025G31KT 15/M04 A2981 RMK A01 T01481038  RH  027%=      5-min Rain = 0
KDC1 111944Z 25032G43KT 15/M04 A2981 RMK A01 T01481038  RH  028%=      5-min Rain = 0
KDC1 111945Z 26031G42KT 15/M04 A2981 RMK A01 T01491036  RH  028%=      5-min Rain = 0
KDC1 111946Z 26024G29KT 15/M04 A2981 RMK A01 T01521035  RH  027%=      5-min Rain = 0
KDC1 111947Z 26032G39KT 15/M03 A2981 RMK A01 T01541032  RH  028%=      5-min Rain = 0
KDC1 111948Z 25032G41KT 15/M04 A2981 RMK A01 T01521038  RH  027%=      5-min Rain = 0
KDC1 111949Z 25036G41KT 15/M04 A2981 RMK A01 T01511040  RH  027%=      5-min Rain = 0
KDC1 111950Z 25034KT 15/M04 A2981 RMK A01 T01491042  RH  027%=      5-min Rain = 0
KDC1 111951Z 25030G36KT 15/M04 A2981 RMK A01 T01491041  RH  027%=      5-min Rain = 0
KDC1 111952Z 27035G40KT 15/M04 A2981 RMK A01 T01491039  RH  027%=      5-min Rain = 0
KDC1 111953Z 26034G40KT 15/M04 A2981 RMK A01 T01511038  RH  027%=      5-min Rain = 0
KDC1 111954Z 26033G39KT 15/M04 A2981 RMK A01 T01531038  RH  027%=      5-min Rain = 0
KDC1 111955Z 27035KT 15/M04 A2981 RMK A01 T01531039  RH  026%=      5-min Rain = 0
KDC1 111956Z 26027G35KT 15/M04 A2981 RMK A01 T01521040  RH  026%=      5-min Rain = 0
KDC1 111957Z 26024KT 16/M04 A2981 RMK A01 T01551035  RH  027%=      5-min Rain = 0
KDC1 111958Z 26026G34KT 16/M04 A2981 RMK A01 T01581037  RH  026%=      5-min Rain = 0
KDC1 111959Z 26026G33KT 16/M04 A2981 RMK A01 T01581036  RH  026%=      5-min Rain = 0
KDC1 112000Z 26030G35KT 16/M04 A2981 RMK A01 T01581039  RH  026%=      5-min Rain = 0
KDC1 112001Z 26031G38KT 16/M04 A2981 RMK A01 T01571042  RH  025%=      5-min Rain = 0
KDC1 112002Z 26029KT 16/M04 A2981 RMK A01 T01551043  RH  025%=      5-min Rain = 0
KDC1 112003Z 26030G37KT 16/M04 A2981 RMK A01 T01551042  RH  026%=      5-min Rain = 0
KDC1 112004Z 25027G36KT 16/M04 A2981 RMK A01 T01561040  RH  026%=      5-min Rain = 0
KDC1 112005Z 25029KT 16/M04 A2981 RMK A01 T01561042  RH  025%=      5-min Rain = 0
KDC1 112006Z 25031KT 16/M04 A2981 RMK A01 T01551043  RH  025%=      5-min Rain = 0
KDC1 112007Z 25028G33KT 15/M05 A2981 RMK A01 T01521046  RH  025%=      5-min Rain = 0
KDC1 112008Z 25029G34KT 15/M05 A2981 RMK A01 T01521046  RH  025%=      5-min Rain = 0
KDC1 112009Z 25030G38KT 15/M05 A2981 RMK A01 T01541047  RH  025%=      5-min Rain = 0
KDC1 112010Z 25031G37KT 15/M05 A2981 RMK A01 T01531050  RH  024%=      5-min Rain = 0
KDC1 112011Z 25026G34KT 15/M05 A2981 RMK A01 T01521051  RH  024%=      5-min Rain = 0
KDC1 112012Z 26025G32KT 15/M05 A2981 RMK A01 T01531049  RH  024%=      5-min Rain = 0
KDC1 112013Z 25024G30KT 16/M05 A2981 RMK A01 T01551052  RH  024%=      5-min Rain = 0
KDC1 112014Z 26029G34KT 15/M05 A2981 RMK A01 T01541050  RH  024%=      5-min Rain = 0
KDC1 112015Z 25022G29KT 16/M05 A2981 RMK A01 T01551049  RH  024%=      5-min Rain = 0
KDC1 112016Z 26026KT 16/M05 A2981 RMK A01 T01561049  RH  024%=      5-min Rain = 0
KDC1 112017Z 26025G30KT 16/M05 A2981 RMK A01 T01561050  RH  024%=      5-min Rain = 0
KDC1 112018Z 26027G33KT 16/M05 A2981 RMK A01 T01591049  RH  024%=      5-min Rain = 0
KDC1 112019Z 27032G39KT 16/M05 A2981 RMK A01 T01621051  RH  023%=      5-min Rain = 0
KDC1 112020Z 26028G34KT 16/M06 A2981 RMK A01 T01591055  RH  022%=      5-min Rain = 0
KDC1 112021Z 26027G33KT 16/M06 A2981 RMK A01 T01581055  RH  023%=      5-min Rain = 0
KDC1 112022Z 25025G32KT 16/M06 A2981 RMK A01 T01581057  RH  022%=      5-min Rain = 0
KDC1 112023Z 26031G37KT 16/M06 A2981 RMK A01 T01581058  RH  022%=      5-min Rain = 0
KDC1 112024Z 25033G39KT 16/M06 A2981 RMK A01 T01571062  RH  022%=      5-min Rain = 0
KDC1 112025Z 26036G44KT 16/M07 A298 RMK A01 T01571068  RH  021%=      5-min Rain = 0
KDC1 112026Z 27028KT 16/M06 A2981 RMK A01 T01581064  RH  021%=      5-min Rain = 0
KDC1 112027Z 25030G44KT 16/M06 A2981 RMK A01 T01611061  RH  021%=      5-min Rain = 0
KDC1 112028Z 27035KT 16/M07 A298 RMK A01 T01601068  RH  020%=      5-min Rain = 0
KDC1 112029Z 26029G39KT 16/M07 A2981 RMK A01 T01591070  RH  020%=      5-min Rain = 0
KDC1 112030Z 26028G33KT 16/M07 A2981 RMK A01 T01601065  RH  021%=      5-min Rain = 0
KDC1 112031Z 25029KT 16/M07 A2981 RMK A01 T01591066  RH  021%=      5-min Rain = 0
KDC1 112032Z 25028G33KT 16/M07 A2981 RMK A01 T01581066  RH  021%=      5-min Rain = 0
KDC1 112033Z 26030G38KT 16/M07 A298 RMK A01 T01561067  RH  021%=      5-min Rain = 0
KDC1 112034Z 27035G41KT 16/M07 A298 RMK A01 T01581069  RH  020%=      5-min Rain = 0
KDC1 112035Z 27031G36KT 16/M07 A298 RMK A01 T01591072  RH  020%=      5-min Rain = 0
KDC1 112036Z 26030G38KT 16/M07 A298 RMK A01 T01611067  RH  020%=      5-min Rain = 0
KDC1 112037Z 26031G40KT 16/M08 A298 RMK A01 T01601075  RH  019%=      5-min Rain = 0
KDC1 112038Z 27032G37KT 16/M08 A298 RMK A01 T01571075  RH  020%=      5-min Rain = 0
KDC1 112039Z 27031G38KT 16/M08 A298 RMK A01 T01571076  RH  019%=      5-min Rain = 0
KDC1 112040Z 27036G43KT 16/M07 A298 RMK A01 T01581074  RH  020%=      5-min Rain = 0
KDC1 112041Z 26030G38KT 16/M07 A298 RMK A01 T01591073  RH  020%=      5-min Rain = 0
KDC1 112042Z 26034G40KT 16/M08 A298 RMK A01 T01601077  RH  019%=      5-min Rain = 0
KDC1 112043Z 26032G39KT 16/M09 A2981 RMK A01 T01581088  RH  018%=      5-min Rain = 0
KDC1 112044Z 26030G37KT 16/M09 A2981 RMK A01 T01561087  RH  018%=      5-min Rain = 0
KDC1 112045Z 26036G43KT 16/M09 A298 RMK A01 T01561087  RH  018%=      5-min Rain = 0
KDC1 112046Z 27035G42KT 16/M09 A2981 RMK A01 T01561086  RH  018%=      5-min Rain = 0
KDC1 112047Z 27033G39KT 16/M08 A2981 RMK A01 T01561081  RH  019%=      5-min Rain = 0
KDC1 112048Z 26031G37KT 16/M08 A2981 RMK A01 T01561080  RH  019%=      5-min Rain = 0
KDC1 112049Z 26028G36KT 16/M08 A2981 RMK A01 T01561077  RH  019%=      5-min Rain = 0
KDC1 112050Z 26027G33KT 16/M08 A2981 RMK A01 T01561078  RH  019%=      5-min Rain = 0
KDC1 112051Z 25029G35KT 16/M08 A2981 RMK A01 T01571081  RH  019%=      5-min Rain = 0
KDC1 112052Z 26032G39KT 16/M08 A2981 RMK A01 T01561078  RH  019%=      5-min Rain = 0
KDC1 112053Z 27032KT 16/M08 A2981 RMK A01 T01561082  RH  019%=      5-min Rain = 0
KDC1 112054Z 26030G36KT 16/M09 A2981 RMK A01 T01581086  RH  018%=      5-min Rain = 0
KDC1 112055Z 27030G35KT 16/M08 A2981 RMK A01 T01581083  RH  018%=      5-min Rain = 0
KDC1 112056Z 26033KT 16/M08 A2982 RMK A01 T01591082  RH  018%=      5-min Rain = 0
KDC1 112057Z 27034G40KT 16/M08 A2981 RMK A01 T01571083  RH  018%=      5-min Rain = 0
KDC1 112058Z 26033G38KT 16/M08 A2981 RMK A01 T01551082  RH  019%=      5-min Rain = 0
KDC1 112059Z 25032G37KT 16/M08 A2981 RMK A01 T01551079  RH  019%=      5-min Rain = 0
KDC1 112100Z 26030KT 16/M08 A2981 RMK A01 T01551079  RH  019%=      5-min Rain = 0
KDC1 112101Z 26034G39KT 15/M08 A2981 RMK A01 T01541078  RH  019%=      5-min Rain = 0
KDC1 112102Z 26033G39KT 15/M08 A2981 RMK A01 T01531082  RH  019%=      5-min Rain = 0
KDC1 112103Z 25031KT 15/M08 A2981 RMK A01 T01521083  RH  019%=      5-min Rain = 0
KDC1 112104Z 25031G37KT 15/M08 A2981 RMK A01 T01521082  RH  019%=      5-min Rain = 0
KDC1 112105Z 25028KT 15/M08 A2981 RMK A01 T01531081  RH  019%=      5-min Rain = 0
KDC1 112106Z 26026G31KT 15/M08 A2981 RMK A01 T01541077  RH  020%=      5-min Rain = 0
KDC1 112107Z 27029G37KT 16/M07 A2981 RMK A01 T01581074  RH  020%=      5-min Rain = 0
KDC1 112108Z 26034G40KT 16/M08 A2981 RMK A01 T01591080  RH  019%=      5-min Rain = 0
KDC1 112109Z 27037G42KT 16/M09 A298 RMK A01 T01571086  RH  018%=      5-min Rain = 0
KDC1 112110Z 27035KT 16/M08 A2981 RMK A01 T01561084  RH  018%=      5-min Rain = 0
KDC1 112111Z 27032KT 16/M09 A298 RMK A01 T01551093  RH  017%=      5-min Rain = 0
KDC1 112112Z 27032KT 15/M09 A2981 RMK A01 T01541091  RH  018%=      5-min Rain = 0
KDC1 112113Z 26027KT 16/M09 A2981 RMK A01 T01551086  RH  018%=      5-min Rain = 0
KDC1 112114Z 27030G36KT 16/M08 A2981 RMK A01 T01581081  RH  018%=      5-min Rain = 0
KDC1 112115Z 27034KT 16/M09 A2981 RMK A01 T01581089  RH  017%=      5-min Rain = 0
KDC1 112116Z 27030G35KT 16/M09 A2982 RMK A01 T01561087  RH  018%=      5-min Rain = 0
KDC1 112117Z 27035G40KT 16/M09 A2981 RMK A01 T01561088  RH  018%=      5-min Rain = 0
KDC1 112118Z 26031G36KT 16/M09 A2982 RMK A01 T01561090  RH  017%=      5-min Rain = 0
KDC1 112119Z 26030G35KT 16/M09 A2982 RMK A01 T01551090  RH  018%=      5-min Rain = 0
KDC1 112120Z 27032G39KT 16/M09 A2982 RMK A01 T01561088  RH  018%=      5-min Rain = 0
KDC1 112121Z 27034G39KT 16/M09 A2982 RMK A01 T01551092  RH  017%=      5-min Rain = 0
KDC1 112122Z 27032G38KT 15/M09 A2982 RMK A01 T01541090  RH  018%=      5-min Rain = 0
KDC1 112123Z 27031G37KT 16/M09 A2982 RMK A01 T01551086  RH  018%=      5-min Rain = 0
KDC1 112124Z 26027KT 16/M09 A2982 RMK A01 T01551087  RH  018%=      5-min Rain = 0
KDC1 112125Z 26028G34KT 16/M09 A2983 RMK A01 T01561085  RH  018%=      5-min Rain = 0
KDC1 112126Z 27030G36KT 16/M09 A2982 RMK A01 T01551088  RH  018%=      5-min Rain = 0
KDC1 112127Z 28029KT 15/M09 A2983 RMK A01 T01541085  RH  018%=      5-min Rain = 0
KDC1 112128Z 27029G34KT 16/M08 A2983 RMK A01 T01551082  RH  019%=      5-min Rain = 0
KDC1 112129Z 26027KT 16/M08 A2983 RMK A01 T01551084  RH  018%=      5-min Rain = 0
KDC1 112130Z 27026KT 16/M09 A2983 RMK A01 T01551089  RH  018%=      5-min Rain = 0
KDC1 112131Z 26027G34KT 16/M09 A2983 RMK A01 T01561090  RH  018%=      5-min Rain = 0
KDC1 112132Z 27029KT 16/M09 A2983 RMK A01 T01561091  RH  017%=      5-min Rain = 0
KDC1 112133Z 27027KT 16/M09 A2983 RMK A01 T01571091  RH  017%=      5-min Rain = 0
KDC1 112134Z 27026KT 16/M10 A2983 RMK A01 T01561096  RH  017%=      5-min Rain = 0
KDC1 112135Z 27030G35KT 16/M09 A2983 RMK A01 T01561093  RH  017%=      5-min Rain = 0
KDC1 112136Z 27030KT 16/M09 A2983 RMK A01 T01571092  RH  017%=      5-min Rain = 0
KDC1 112137Z 27031G40KT 16/M10 A2983 RMK A01 T01561096  RH  017%=      5-min Rain = 0
KDC1 112138Z 27035KT 16/M10 A2983 RMK A01 T01551103  RH  016%=      5-min Rain = 0
KDC1 112139Z 27033G39KT 15/M11 A2983 RMK A01 T01531105  RH  016%=      5-min Rain = 0
KDC1 112140Z 27035G40KT 15/M10 A2983 RMK A01 T01521100  RH  017%=      5-min Rain = 0
KDC1 112141Z 28036G42KT 15/M11 A2983 RMK A01 T01521105  RH  016%=      5-min Rain = 0
KDC1 112142Z 28035G40KT 15/M11 A2983 RMK A01 T01511107  RH  016%=      5-min Rain = 0
KDC1 112143Z 28037G43KT 15/M11 A2983 RMK A01 T01511108  RH  016%=      5-min Rain = 0
KDC1 112144Z 28036G41KT 15/M11 A2984 RMK A01 T01501109  RH  016%=      5-min Rain = 0
KDC1 112145Z 28032KT 15/M11 A2984 RMK A01 T01511107  RH  016%=      5-min Rain = 0
KDC1 112146Z 28034G42KT 15/M11 A2984 RMK A01 T01511105  RH  016%=      5-min Rain = 0
KDC1 112147Z 28032G37KT 15/M11 A2984 RMK A01 T01511110  RH  015%=      5-min Rain = 0
KDC1 112148Z 27032G37KT 15/M11 A2984 RMK A01 T01511106  RH  016%=      5-min Rain = 0
KDC1 112149Z 27034KT 15/M11 A2984 RMK A01 T01521106  RH  016%=      5-min Rain = 0
KDC1 112150Z 27034KT 15/M11 A2984 RMK A01 T01521107  RH  016%=      5-min Rain = 0
KDC1 112151Z 28031KT 15/M11 A2984 RMK A01 T01511105  RH  016%=      5-min Rain = 0
KDC1 112152Z 28029KT 15/M10 A2984 RMK A01 T01501098  RH  017%=      5-min Rain = 0
KDC1 112153Z 28029G34KT 15/M10 A2984 RMK A01 T01521098  RH  017%=      5-min Rain = 0
KDC1 112154Z 27030KT 15/M10 A2984 RMK A01 T01521103  RH  016%=      5-min Rain = 0
KDC1 112155Z 27026G31KT 15/M10 A2984 RMK A01 T01521100  RH  017%=      5-min Rain = 0
KDC1 112156Z 28027KT 15/M10 A2984 RMK A01 T01531098  RH  017%=      5-min Rain = 0
KDC1 112157Z 28029KT 15/M10 A2984 RMK A01 T01531095  RH  017%=      5-min Rain = 0
KDC1 112158Z 28030KT 15/M10 A2984 RMK A01 T01521097  RH  017%=      5-min Rain = 0
KDC1 112159Z 27031KT 15/M10 A2984 RMK A01 T01521098  RH  017%=      5-min Rain = 0
KDC1 112200Z 27030G35KT 15/M10 A2984 RMK A01 T01521101  RH  017%=      5-min Rain = 0
KDC1 112201Z 26033KT 15/M10 A2984 RMK A01 T01511101  RH  017%=      5-min Rain = 0
KDC1 112202Z 26029G35KT 15/M10 A2984 RMK A01 T01501101  RH  017%=      5-min Rain = 0
KDC1 112203Z 26026G32KT 15/M10 A2984 RMK A01 T01491100  RH  017%=      5-min Rain = 0
KDC1 112204Z 26029G36KT 15/M10 A2984 RMK A01 T01491099  RH  017%=      5-min Rain = 0
KDC1 112205Z 27029G35KT 15/M10 A2984 RMK A01 T01491097  RH  017%=      5-min Rain = 0
KDC1 112206Z 27032KT 15/M10 A2984 RMK A01 T01511095  RH  017%=      5-min Rain = 0
KDC1 112207Z 26031KT 15/M10 A2984 RMK A01 T01511098  RH  017%=      5-min Rain = 0
KDC1 112208Z 26026KT 15/M10 A2984 RMK A01 T01501100  RH  017%=      5-min Rain = 0
KDC1 112209Z 27025KT 15/M10 A2984 RMK A01 T01501097  RH  017%=      5-min Rain = 0
KDC1 112210Z 27023KT 15/M10 A2984 RMK A01 T01511096  RH  017%=      5-min Rain = 0
KDC1 112211Z 27028G33KT 15/M09 A2985 RMK A01 T01531092  RH  018%=      5-min Rain = 0
KDC1 112212Z 26026G31KT 15/M09 A2985 RMK A01 T01531094  RH  017%=      5-min Rain = 0
KDC1 112213Z 26027G35KT 15/M10 A2984 RMK A01 T01521095  RH  017%=      5-min Rain = 0
KDC1 112214Z 27030KT 15/M10 A2984 RMK A01 T01511095  RH  017%=      5-min Rain = 0
KDC1 112215Z 26026KT 15/M10 A2985 RMK A01 T01491095  RH  018%=      5-min Rain = 0
KDC1 112216Z 26025KT 15/M10 A2985 RMK A01 T01491095  RH  018%=      5-min Rain = 0
KDC1 112217Z 27025KT 15/M10 A2985 RMK A01 T01491097  RH  017%=      5-min Rain = 0
KDC1 112218Z 27024KT 15/M09 A2985 RMK A01 T01501091  RH  018%=      5-min Rain = 0
KDC1 112219Z 28026G32KT 15/M09 A2985 RMK A01 T01511090  RH  018%=      5-min Rain = 0
KDC1 112220Z 28024KT 15/M10 A2985 RMK A01 T01521096  RH  017%=      5-min Rain = 0
KDC1 112221Z 27026G33KT 15/M10 A2985 RMK A01 T01511096  RH  017%=      5-min Rain = 0
KDC1 112222Z 27029KT 15/M10 A2985 RMK A01 T01511099  RH  017%=      5-min Rain = 0
KDC1 112223Z 27027KT 15/M10 A2985 RMK A01 T01501102  RH  017%=      5-min Rain = 0
KDC1 112224Z 27025G31KT 15/M10 A2985 RMK A01 T01501101  RH  017%=      5-min Rain = 0
KDC1 112225Z 28025KT 15/M09 A2985 RMK A01 T01511094  RH  017%=      5-min Rain = 0
KDC1 112226Z 29024G29KT 15/M09 A2985 RMK A01 T01531094  RH  017%=      5-min Rain = 0
KDC1 112227Z 29024KT 15/M09 A2986 RMK A01 T01531093  RH  017%=      5-min Rain = 0
KDC1 112228Z 28024G30KT 15/M09 A2986 RMK A01 T01531089  RH  018%=      5-min Rain = 0
KDC1 112229Z 27024KT 15/M09 A2986 RMK A01 T01521093  RH  018%=      5-min Rain = 0
KDC1 112230Z 28023KT 15/M09 A2986 RMK A01 T01521090  RH  018%=      5-min Rain = 0
KDC1 112231Z 28026G35KT 15/M09 A2986 RMK A01 T01511091  RH  018%=      5-min Rain = 0
KDC1 112232Z 28029KT 15/M10 A2986 RMK A01 T01501095  RH  017%=      5-min Rain = 0
KDC1 112233Z 28028KT 15/M10 A2986 RMK A01 T01491097  RH  017%=      5-min Rain = 0
KDC1 112234Z 28027G32KT 15/M10 A2986 RMK A01 T01491102  RH  017%=      5-min Rain = 0
KDC1 112235Z 29026KT 15/M10 A2987 RMK A01 T01481100  RH  017%=      5-min Rain = 0
KDC1 112236Z 29027G33KT 15/M10 A2986 RMK A01 T01481097  RH  017%=      5-min Rain = 0
KDC1 112237Z 27029KT 15/M09 A2987 RMK A01 T01491093  RH  018%=      5-min Rain = 0
KDC1 112238Z 27028KT 15/M09 A2986 RMK A01 T01491094  RH  018%=      5-min Rain = 0
KDC1 112239Z 27023G30KT 15/M09 A2987 RMK A01 T01481091  RH  018%=      5-min Rain = 0
KDC1 112240Z 27025KT 15/M09 A2987 RMK A01 T01481092  RH  018%=      5-min Rain = 0
KDC1 112241Z 28024G29KT 15/M09 A2987 RMK A01 T01491086  RH  019%=      5-min Rain = 0
KDC1 112242Z 29023KT 15/M09 A2987 RMK A01 T01501085  RH  019%=      5-min Rain = 0
KDC1 112243Z 28022KT 15/M09 A2987 RMK A01 T01501088  RH  019%=      5-min Rain = 0
KDC1 112244Z 29023KT 15/M09 A2987 RMK A01 T01501085  RH  019%=      5-min Rain = 0
KDC1 112245Z 29024KT 15/M09 A2987 RMK A01 T01511086  RH  019%=      5-min Rain = 0
KDC1 112246Z 29025G30KT 15/M09 A2987 RMK A01 T01501085  RH  019%=      5-min Rain = 0
KDC1 112247Z 29021KT 15/M09 A2987 RMK A01 T01481091  RH  018%=      5-min Rain = 0
KDC1 112248Z 28023KT 15/M09 A2988 RMK A01 T01481086  RH  019%=      5-min Rain = 0
KDC1 112249Z 28027G33KT 15/M09 A2987 RMK A01 T01481091  RH  018%=      5-min Rain = 0
KDC1 112250Z 28024G31KT 15/M09 A2987 RMK A01 T01471092  RH  018%=      5-min Rain = 0
KDC1 112251Z 28029G39KT 15/M10 A2987 RMK A01 T01471095  RH  018%=      5-min Rain = 0
KDC1 112252Z 29023KT 15/M09 A2988 RMK A01 T01471093  RH  018%=      5-min Rain = 0
KDC1 112253Z 30022KT 15/M09 A2988 RMK A01 T01471091  RH  018%=      5-min Rain = 0
KDC1 112254Z 29022KT 15/M09 A2988 RMK A01 T01471092  RH  018%=      5-min Rain = 0
KDC1 112255Z 29026G32KT 15/M09 A2988 RMK A01 T01461092  RH  018%=      5-min Rain = 0
KDC1 112256Z 29026KT 15/M09 A2988 RMK A01 T01461091  RH  019%=      5-min Rain = 0
KDC1 112257Z 27025KT 15/M09 A2988 RMK A01 T01461091  RH  019%=      5-min Rain = 0
KDC1 112258Z 27025KT 15/M09 A2988 RMK A01 T01461094  RH  018%=      5-min Rain = 0
KDC1 112259Z 27025KT 15/M09 A2989 RMK A01 T01461093  RH  018%=      5-min Rain = 0
KDC1 112300Z 28025KT 15/M09 A2989 RMK A01 T01461089  RH  019%=      5-min Rain = 0
KDC1 112301Z 28026KT 15/M09 A2989 RMK A01 T01461088  RH  019%=      5-min Rain = 0
KDC1 112302Z 27024KT 15/M09 A2989 RMK A01 T01451088  RH  019%=      5-min Rain = 0
KDC1 112303Z 27027KT 15/M09 A2989 RMK A01 T01461089  RH  019%=      5-min Rain = 0
KDC1 112304Z 28026G31KT 15/M09 A2989 RMK A01 T01461088  RH  019%=      5-min Rain = 0
KDC1 112305Z 28024KT 15/M09 A2989 RMK A01 T01461087  RH  019%=      5-min Rain = 0
KDC1 112306Z 28021KT 15/M09 A2989 RMK A01 T01461090  RH  019%=      5-min Rain = 0
KDC1 112307Z 29023G31KT 15/M09 A2989 RMK A01 T01451090  RH  019%=      5-min Rain = 0
KDC1 112308Z 28026G32KT 14/M09 A2989 RMK A01 T01441090  RH  019%=      5-min Rain = 0
KDC1 112309Z 28023KT 14/M09 A2989 RMK A01 T01441087  RH  019%=      5-min Rain = 0
KDC1 112310Z 28025G33KT 14/M09 A2989 RMK A01 T01441085  RH  020%=      5-min Rain = 0
KDC1 112311Z 28025KT 15/M09 A2989 RMK A01 T01451087  RH  019%=      5-min Rain = 0
KDC1 112312Z 28025KT 14/M09 A2989 RMK A01 T01431089  RH  019%=      5-min Rain = 0
KDC1 112313Z 28022KT 14/M09 A299 RMK A01 T01431088  RH  019%=      5-min Rain = 0
KDC1 112314Z 29021KT 14/M09 A299 RMK A01 T01431085  RH  020%=      5-min Rain = 0
KDC1 112315Z 29020G25KT 14/M09 A299 RMK A01 T01431086  RH  020%=      5-min Rain = 0
KDC1 112316Z 28023KT 14/M09 A299 RMK A01 T01441085  RH  020%=      5-min Rain = 0
KDC1 112317Z 29024KT 14/M08 A299 RMK A01 T01431083  RH  020%=      5-min Rain = 0
KDC1 112318Z 28021KT 14/M08 A299 RMK A01 T01431083  RH  020%=      5-min Rain = 0
KDC1 112319Z 27024KT 14/M09 A299 RMK A01 T01411085  RH  020%=      5-min Rain = 0
KDC1 112320Z 28024KT 14/M09 A299 RMK A01 T01421086  RH  020%=      5-min Rain = 0
KDC1 112321Z 28021G26KT 14/M08 A299 RMK A01 T01411082  RH  021%=      5-min Rain = 0
KDC1 112322Z 28022KT 14/M08 A299 RMK A01 T01411081  RH  021%=      5-min Rain = 0
KDC1 112323Z 27019G24KT 14/M08 A299 RMK A01 T01421081  RH  021%=      5-min Rain = 0
KDC1 112324Z 27023KT 14/M08 A299 RMK A01 T01421080  RH  021%=      5-min Rain = 0
KDC1 112325Z 27023KT 14/M08 A299 RMK A01 T01421083  RH  020%=      5-min Rain = 0
KDC1 112326Z 27024KT 14/M08 A299 RMK A01 T01421083  RH  020%=      5-min Rain = 0
KDC1 112327Z 28024KT 14/M08 A299 RMK A01 T01421082  RH  020%=      5-min Rain = 0
KDC1 112328Z 27026KT 14/M08 A299 RMK A01 T01411082  RH  021%=      5-min Rain = 0
KDC1 112329Z 27024KT 14/M08 A299 RMK A01 T01411082  RH  021%=      5-min Rain = 0
KDC1 112330Z 27026KT 14/M08 A299 RMK A01 T01401081  RH  021%=      5-min Rain = 0
KDC1 112331Z 27024KT 14/M08 A299 RMK A01 T01401080  RH  021%=      5-min Rain = 0
KDC1 112332Z 28023KT 14/M08 A299 RMK A01 T01401080  RH  021%=      5-min Rain = 0
KDC1 112333Z 28022KT 14/M08 A299 RMK A01 T01391080  RH  021%=      5-min Rain = 0
KDC1 112334Z 28021KT 14/M08 A2991 RMK A01 T01391078  RH  021%=      5-min Rain = 0
KDC1 112335Z 28020KT 14/M08 A2991 RMK A01 T01391076  RH  022%=      5-min Rain = 0
KDC1 112336Z 27019G24KT 14/M08 A2991 RMK A01 T01391076  RH  022%=      5-min Rain = 0
KDC1 112337Z 27023G28KT 14/M08 A2991 RMK A01 T01391075  RH  022%=      5-min Rain = 0
KDC1 112338Z 27026KT 14/M08 A2991 RMK A01 T01401078  RH  021%=      5-min Rain = 0
KDC1 112339Z 28023KT 14/M08 A2991 RMK A01 T01401078  RH  021%=      5-min Rain = 0
KDC1 112340Z 28024KT 14/M08 A2991 RMK A01 T01391077  RH  022%=      5-min Rain = 0
KDC1 112341Z 27022KT 14/M08 A2991 RMK A01 T01381079  RH  021%=      5-min Rain = 0
KDC1 112342Z 28022KT 14/M08 A2991 RMK A01 T01381077  RH  022%=      5-min Rain = 0
KDC1 112343Z 27020KT 14/M08 A2991 RMK A01 T01381077  RH  022%=      5-min Rain = 0
KDC1 112344Z 27022KT 14/M08 A2991 RMK A01 T01381076  RH  022%=      5-min Rain = 0
KDC1 112345Z 27021G26KT 14/M08 A2991 RMK A01 T01371076  RH  022%=      5-min Rain = 0
KDC1 112346Z 27018KT 14/M08 A2991 RMK A01 T01371075  RH  022%=      5-min Rain = 0
KDC1 112347Z 27017G22KT 14/M07 A2992 RMK A01 T01371074  RH  022%=      5-min Rain = 0
KDC1 112348Z 27020KT 14/M07 A2991 RMK A01 T01371074  RH  022%=      5-min Rain = 0
KDC1 112349Z 28021G27KT 14/M08 A2992 RMK A01 T01371076  RH  022%=      5-min Rain = 0
KDC1 112350Z 28020KT 14/M07 A2992 RMK A01 T01371074  RH  022%=      5-min Rain = 0
KDC1 112351Z 28022KT 14/M08 A2992 RMK A01 T01381075  RH  022%=      5-min Rain = 0
KDC1 112352Z 28022KT 14/M08 A2992 RMK A01 T01381075  RH  022%=      5-min Rain = 0
KDC1 112353Z 28020KT 14/M07 A2992 RMK A01 T01371074  RH  022%=      5-min Rain = 0
KDC1 112354Z 27020KT 14/M07 A2992 RMK A01 T01371074  RH  022%=      5-min Rain = 0
KDC1 112355Z 27018KT 14/M07 A2992 RMK A01 T01361074  RH  023%=      5-min Rain = 0
KDC1 112356Z 27018KT 14/M07 A2992 RMK A01 T01361074  RH  023%=      5-min Rain = 0
KDC1 112357Z 27019KT 14/M07 A2992 RMK A01 T01361073  RH  023%=      5-min Rain = 0
KDC1 112358Z 27018KT 14/M07 A2992 RMK A01 T01361074  RH  023%=      5-min Rain = 0
KDC1 112359Z 28020KT 14/M07 A2992 RMK A01 T01361073  RH  023%=      5-min Rain = 0
KDC1 120000Z 29023KT 14/M07 A2992 RMK A01 T01361073  RH  023%=      5-min Rain = 0
KDC1 120001Z 29021KT 14/M07 A2992 RMK A01 T01351073  RH  023%=      5-min Rain = 0
KDC1 120002Z 29019KT 14/M07 A2992 RMK A01 T01351071  RH  023%=      5-min Rain = 0
KDC1 120003Z 29018KT 14/M07 A2993 RMK A01 T01351071  RH  023%=      5-min Rain = 0
KDC1 120004Z 28017KT 14/M07 A2993 RMK A01 T01351070  RH  024%=      5-min Rain = 0
KDC1 120005Z 28021KT 13/M07 A2993 RMK A01 T01341071  RH  023%=      5-min Rain = 0
KDC1 120006Z 29020KT 13/M07 A2993 RMK A01 T01341072  RH  023%=      5-min Rain = 0
KDC1 120007Z 28019G24KT 13/M07 A2993 RMK A01 T01341072  RH  023%=      5-min Rain = 0
KDC1 120008Z 28017G22KT 13/M07 A2993 RMK A01 T01331070  RH  024%=      5-min Rain = 0
KDC1 120009Z 28021KT 13/M07 A2993 RMK A01 T01321070  RH  024%=      5-min Rain = 0
KDC1 120010Z 30018KT 13/M07 A2994 RMK A01 T01321069  RH  024%=      5-min Rain = 0
KDC1 120011Z 31019G24KT 13/M09 A2994 RMK A01 T01301087  RH  021%=      5-min Rain = 0
KDC1 120012Z 31019KT 13/M10 A2994 RMK A01 T01261103  RH  019%=      5-min Rain = 0
KDC1 120013Z 31022KT 12/M11 A2994 RMK A01 T01241109  RH  019%=      5-min Rain = 0
KDC1 120014Z 31021KT 12/M11 A2994 RMK A01 T01231112  RH  018%=      5-min Rain = 0
KDC1 120015Z 31022KT 12/M11 A2994 RMK A01 T01221110  RH  019%=      5-min Rain = 0
KDC1 120016Z 31022KT 12/M11 A2994 RMK A01 T01211111  RH  019%=      5-min Rain = 0
KDC1 120017Z 30021KT 12/M11 A2994 RMK A01 T01211112  RH  019%=      5-min Rain = 0
KDC1 120018Z 31021KT 12/M11 A2994 RMK A01 T01211111  RH  019%=      5-min Rain = 0
KDC1 120019Z 31017KT 12/M11 A2994 RMK A01 T01201109  RH  019%=      5-min Rain = 0
KDC1 120020Z 31018KT 12/M11 A2994 RMK A01 T01181107  RH  020%=      5-min Rain = 0
KDC1 120021Z 31017KT 12/M11 A2995 RMK A01 T01181106  RH  020%=      5-min Rain = 0
KDC1 120022Z 31017KT 12/M11 A2995 RMK A01 T01171108  RH  020%=      5-min Rain = 0
KDC1 120023Z 30015KT 12/M11 A2995 RMK A01 T01161107  RH  020%=      5-min Rain = 0
KDC1 120024Z 31018KT 12/M11 A2995 RMK A01 T01151105  RH  020%=      5-min Rain = 0
KDC1 120025Z 31019KT 12/M11 A2995 RMK A01 T01151112  RH  019%=      5-min Rain = 0
KDC1 120026Z 31017KT 11/M11 A2995 RMK A01 T01141111  RH  019%=      5-min Rain = 0
KDC1 120027Z 31016KT 11/M11 A2995 RMK A01 T01141111  RH  019%=      5-min Rain = 0
KDC1 120028Z 30016KT 11/M11 A2995 RMK A01 T01131112  RH  019%=      5-min Rain = 0
KDC1 120029Z 30017KT 11/M11 A2995 RMK A01 T01131110  RH  020%=      5-min Rain = 0
KDC1 120030Z 30015KT 11/M11 A2996 RMK A01 T01121112  RH  020%=      5-min Rain = 0
KDC1 120031Z 30016KT 11/M11 A2996 RMK A01 T01111110  RH  020%=      5-min Rain = 0
KDC1 120032Z 30017KT 11/M11 A2996 RMK A01 T01101112  RH  020%=      5-min Rain = 0
KDC1 120033Z 30018KT 11/M11 A2996 RMK A01 T01091114  RH  020%=      5-min Rain = 0
KDC1 120034Z 30019KT 11/M12 A2996 RMK A01 T01091117  RH  019%=      5-min Rain = 0
KDC1 120035Z 30017KT 11/M12 A2996 RMK A01 T01091118  RH  019%=      5-min Rain = 0
KDC1 120036Z 30015KT 11/M12 A2996 RMK A01 T01091116  RH  019%=      5-min Rain = 0
KDC1 120037Z 30013KT 11/M11 A2996 RMK A01 T01071114  RH  020%=      5-min Rain = 0
KDC1 120038Z 30014KT 11/M11 A2996 RMK A01 T01071114  RH  020%=      5-min Rain = 0
KDC1 120039Z 30014KT 11/M12 A2996 RMK A01 T01061116  RH  020%=      5-min Rain = 0
KDC1 120040Z 30014KT 11/M12 A2997 RMK A01 T01061118  RH  020%=      5-min Rain = 0
KDC1 120041Z 30013KT 11/M12 A2997 RMK A01 T01061116  RH  020%=      5-min Rain = 0
KDC1 120042Z 30013KT 11/M11 A2997 RMK A01 T01051114  RH  020%=      5-min Rain = 0
KDC1 120043Z 31014G19KT 10/M12 A2997 RMK A01 T01041116  RH  020%=      5-min Rain = 0
KDC1 120044Z 31017KT 10/M12 A2996 RMK A01 T01031123  RH  019%=      5-min Rain = 0
KDC1 120045Z 31018KT 10/M13 A2997 RMK A01 T01041127  RH  018%=      5-min Rain = 0
KDC1 120046Z 31016KT 11/M13 A2997 RMK A01 T01051130  RH  018%=      5-min Rain = 0
KDC1 120047Z 31017KT 11/M13 A2997 RMK A01 T01051129  RH  018%=      5-min Rain = 0
KDC1 120048Z 31017KT 10/M13 A2997 RMK A01 T01041131  RH  018%=      5-min Rain = 0
KDC1 120049Z 31016KT 10/M13 A2997 RMK A01 T01041130  RH  018%=      5-min Rain = 0
KDC1 120050Z 30014KT 10/M13 A2997 RMK A01 T01031129  RH  018%=      5-min Rain = 0
KDC1 120051Z 30014KT 10/M13 A2997 RMK A01 T01011127  RH  019%=      5-min Rain = 0
KDC1 120052Z 30013KT 10/M13 A2997 RMK A01 T00991127  RH  019%=      5-min Rain = 0
KDC1 120053Z 30014KT 10/M13 A2998 RMK A01 T00981126  RH  019%=      5-min Rain = 0
KDC1 120054Z 30014KT 10/M13 A2998 RMK A01 T00981129  RH  019%=      5-min Rain = 0
KDC1 120055Z 30013KT 10/M13 A2998 RMK A01 T00981130  RH  019%=      5-min Rain = 0
KDC1 120056Z 30013KT 10/M13 A2998 RMK A01 T00981130  RH  019%=      5-min Rain = 0
KDC1 120057Z 30013KT 10/M13 A2998 RMK A01 T00971130  RH  019%=      5-min Rain = 0
KDC1 120058Z 30014KT 10/M13 A2998 RMK A01 T00961130  RH  019%=      5-min Rain = 0
KDC1 120059Z 30013KT 10/M13 A2998 RMK A01 T00961131  RH  019%=      5-min Rain = 0
KDC1 120100Z 30013KT 10/M13 A2998 RMK A01 T00951132  RH  019%=      5-min Rain = 0
KDC1 120101Z 30012KT 10/M13 A2998 RMK A01 T00951134  RH  018%=      5-min Rain = 0
KDC1 120102Z 30013KT 10/M13 A2998 RMK A01 T00951133  RH  019%=      5-min Rain = 0
KDC1 120103Z 30013KT 10/M13 A2999 RMK A01 T00951133  RH  019%=      5-min Rain = 0
KDC1 120104Z 30013KT 09/M13 A2999 RMK A01 T00941134  RH  019%=      5-min Rain = 0
KDC1 120105Z 30013KT 09/M14 A2999 RMK A01 T00941135  RH  018%=      5-min Rain = 0
KDC1 120106Z 30014KT 09/M14 A2999 RMK A01 T00941135  RH  018%=      5-min Rain = 0
KDC1 120107Z 31014KT 09/M14 A2999 RMK A01 T00941137  RH  018%=      5-min Rain = 0
KDC1 120108Z 30012KT 09/M14 A2999 RMK A01 T00941138  RH  018%=      5-min Rain = 0
KDC1 120109Z 30012KT 09/M14 A2999 RMK A01 T00931135  RH  019%=      5-min Rain = 0
KDC1 120110Z 30011KT 09/M14 A2999 RMK A01 T00921137  RH  018%=      5-min Rain = 0
KDC1 120111Z 30011KT 09/M14 A2999 RMK A01 T00921136  RH  019%=      5-min Rain = 0
KDC1 120112Z 30012KT 09/M13 A2999 RMK A01 T00911134  RH  019%=      5-min Rain = 0
KDC1 120113Z 30012KT 09/M14 A2999 RMK A01 T00901137  RH  018%=      5-min Rain = 0
KDC1 120114Z 30011KT 09/M14 A2999 RMK A01 T00911136  RH  019%=      5-min Rain = 0
KDC1 120115Z 30012KT 09/M13 A2999 RMK A01 T00911134  RH  019%=      5-min Rain = 0
KDC1 120116Z 30012KT 09/M14 A2999 RMK A01 T00901135  RH  019%=      5-min Rain = 0
KDC1 120117Z 30012KT 09/M14 A30 RMK A01 T00891137  RH  019%=      5-min Rain = 0
KDC1 120118Z 30012KT 09/M14 A30 RMK A01 T00891137  RH  019%=      5-min Rain = 0
KDC1 120119Z 30012KT 09/M14 A30 RMK A01 T00891138  RH  019%=      5-min Rain = 0
KDC1 120120Z 29013KT 09/M14 A30 RMK A01 T00891137  RH  019%=      5-min Rain = 0
KDC1 120121Z 29012KT 09/M14 A30 RMK A01 T00881138  RH  019%=      5-min Rain = 0
KDC1 120122Z 29012KT 09/M14 A30 RMK A01 T00881138  RH  019%=      5-min Rain = 0
KDC1 120123Z 29012KT 09/M14 A30 RMK A01 T00881137  RH  019%=      5-min Rain = 0
KDC1 120124Z 29011KT 09/M14 A30 RMK A01 T00871136  RH  019%=      5-min Rain = 0
KDC1 120125Z 29012KT 09/M14 A30 RMK A01 T00861136  RH  019%=      5-min Rain = 0
KDC1 120126Z 29012KT 09/M14 A30 RMK A01 T00861139  RH  019%=      5-min Rain = 0
KDC1 120127Z 29011KT 09/M14 A30 RMK A01 T00871138  RH  019%=      5-min Rain = 0
KDC1 120128Z 30012KT 09/M14 A30 RMK A01 T00871135  RH  019%=      5-min Rain = 0
KDC1 120129Z 29011KT 09/M14 A30 RMK A01 T00871137  RH  019%=      5-min Rain = 0
KDC1 120130Z 29012KT 09/M14 A30 RMK A01 T00871139  RH  019%=      5-min Rain = 0
KDC1 120131Z 29012KT 09/M14 A3001 RMK A01 T00881139  RH  019%=      5-min Rain = 0
KDC1 120132Z 29012KT 09/M14 A3001 RMK A01 T00881137  RH  019%=      5-min Rain = 0
KDC1 120133Z 29012KT 09/M14 A3001 RMK A01 T00871137  RH  019%=      5-min Rain = 0
KDC1 120134Z 29012KT 09/M14 A3001 RMK A01 T00861137  RH  019%=      5-min Rain = 0
KDC1 120135Z 29011KT 09/M14 A3001 RMK A01 T00851137  RH  019%=      5-min Rain = 0
KDC1 120136Z 28011KT 09/M14 A3001 RMK A01 T00851137  RH  019%=      5-min Rain = 0
KDC1 120137Z 29010KT 08/M14 A3001 RMK A01 T00841137  RH  019%=      5-min Rain = 0
KDC1 120138Z 29011KT 08/M14 A3001 RMK A01 T00831137  RH  019%=      5-min Rain = 0
KDC1 120139Z 29011KT 08/M14 A3001 RMK A01 T00831139  RH  019%=      5-min Rain = 0
KDC1 120140Z 29011KT 08/M14 A3001 RMK A01 T00831140  RH  019%=      5-min Rain = 0
KDC1 120141Z 29011KT 08/M14 A3001 RMK A01 T00841139  RH  019%=      5-min Rain = 0
KDC1 120142Z 29011KT 08/M14 A3001 RMK A01 T00841138  RH  019%=      5-min Rain = 0
KDC1 120143Z 29011KT 08/M14 A3002 RMK A01 T00831138  RH  019%=      5-min Rain = 0
KDC1 120144Z 29011KT 08/M14 A3002 RMK A01 T00831138  RH  019%=      5-min Rain = 0
KDC1 120145Z 29011KT 08/M14 A3002 RMK A01 T00831136  RH  020%=      5-min Rain = 0
KDC1 120146Z 29010KT 08/M13 A3002 RMK A01 T00811134  RH  020%=      5-min Rain = 0
KDC1 120147Z 29011KT 08/M14 A3002 RMK A01 T00811136  RH  020%=      5-min Rain = 0
KDC1 120148Z 29012KT 08/M14 A3002 RMK A01 T00821139  RH  019%=      5-min Rain = 0
KDC1 120149Z 29012KT 08/M14 A3002 RMK A01 T00831140  RH  019%=      5-min Rain = 0
KDC1 120150Z 29011KT 08/M14 A3002 RMK A01 T00841140  RH  019%=      5-min Rain = 0
KDC1 120151Z 29012KT 08/M14 A3002 RMK A01 T00841141  RH  019%=      5-min Rain = 0
KDC1 120152Z 29012KT 09/M14 A3002 RMK A01 T00851142  RH  018%=      5-min Rain = 0
KDC1 120153Z 29011KT 09/M14 A3003 RMK A01 T00851142  RH  019%=      5-min Rain = 0
KDC1 120154Z 29011KT 09/M14 A3003 RMK A01 T00851140  RH  019%=      5-min Rain = 0
KDC1 120155Z 29011KT 09/M14 A3003 RMK A01 T00851141  RH  019%=      5-min Rain = 0
KDC1 120156Z 29011KT 09/M14 A3003 RMK A01 T00851142  RH  019%=      5-min Rain = 0
KDC1 120157Z 29012KT 09/M14 A3003 RMK A01 T00851142  RH  018%=      5-min Rain = 0
KDC1 120158Z 29011KT 09/M14 A3003 RMK A01 T00851142  RH  018%=      5-min Rain = 0
KDC1 120159Z 29011KT 08/M14 A3003 RMK A01 T00841142  RH  018%=      5-min Rain = 0
KDC1 120200Z 29011KT 08/M14 A3003 RMK A01 T00841144  RH  018%=      5-min Rain = 0
KDC1 120201Z 29010KT 08/M14 A3003 RMK A01 T00841142  RH  019%=      5-min Rain = 0
KDC1 120202Z 29010KT 08/M14 A3003 RMK A01 T00841142  RH  019%=      5-min Rain = 0
KDC1 120203Z 30009KT 08/M14 A3003 RMK A01 T00831142  RH  019%=      5-min Rain = 0
KDC1 120204Z 30009KT 08/M14 A3003 RMK A01 T00831141  RH  019%=      5-min Rain = 0
KDC1 120205Z 30009KT 08/M14 A3003 RMK A01 T00831142  RH  019%=      5-min Rain = 0
KDC1 120206Z 30009KT 08/M14 A3003 RMK A01 T00821140  RH  019%=      5-min Rain = 0
KDC1 120207Z 30009KT 08/M14 A3004 RMK A01 T00811138  RH  020%=      5-min Rain = 0
KDC1 120208Z 30008KT 08/M14 A3004 RMK A01 T00791140  RH  020%=      5-min Rain = 0
KDC1 120209Z 30008KT 08/M14 A3004 RMK A01 T00781139  RH  020%=      5-min Rain = 0
KDC1 120210Z 30007KT 08/M14 A3004 RMK A01 T00771137  RH  020%=      5-min Rain = 0
KDC1 120211Z 31008KT 08/M14 A3004 RMK A01 T00761135  RH  021%=      5-min Rain = 0
KDC1 120212Z 31008KT 08/M14 A3004 RMK A01 T00751137  RH  021%=      5-min Rain = 0
KDC1 120213Z 30008KT 08/M14 A3004 RMK A01 T00751138  RH  020%=      5-min Rain = 0
KDC1 120214Z 31007KT 08/M14 A3005 RMK A01 T00751137  RH  021%=      5-min Rain = 0
KDC1 120215Z 30007KT 07/M14 A3005 RMK A01 T00731136  RH  021%=      5-min Rain = 0
KDC1 120216Z 30007KT 07/M14 A3005 RMK A01 T00731135  RH  021%=      5-min Rain = 0
KDC1 120217Z 31007KT 07/M14 A3005 RMK A01 T00731135  RH  021%=      5-min Rain = 0
KDC1 120218Z 30006KT 07/M14 A3005 RMK A01 T00721138  RH  021%=      5-min Rain = 0
KDC1 120219Z 30006KT 07/M14 A3005 RMK A01 T00721136  RH  021%=      5-min Rain = 0
KDC1 120220Z 30006KT 07/M13 A3005 RMK A01 T00701132  RH  022%=      5-min Rain = 0
KDC1 120221Z 30006KT 07/M13 A3005 RMK A01 T00691132  RH  022%=      5-min Rain = 0
KDC1 120222Z 30007KT 07/M13 A3005 RMK A01 T00681132  RH  023%=      5-min Rain = 0
KDC1 120223Z 30006KT 07/M13 A3005 RMK A01 T00671133  RH  022%=      5-min Rain = 0
KDC1 120224Z 30007KT 07/M14 A3005 RMK A01 T00671135  RH  022%=      5-min Rain = 0
KDC1 120225Z 29007KT 07/M13 A3005 RMK A01 T00671134  RH  022%=      5-min Rain = 0
KDC1 120226Z 30007KT 07/M13 A3005 RMK A01 T00671132  RH  023%=      5-min Rain = 0
KDC1 120227Z 29008KT 07/M13 A3006 RMK A01 T00661132  RH  023%=      5-min Rain = 0
KDC1 120228Z 29008KT 07/M14 A3006 RMK A01 T00671136  RH  022%=      5-min Rain = 0
KDC1 120229Z 30008KT 07/M13 A3006 RMK A01 T00671134  RH  022%=      5-min Rain = 0
KDC1 120230Z 30008KT 07/M13 A3006 RMK A01 T00671132  RH  023%=      5-min Rain = 0
KDC1 120231Z 30008KT 07/M13 A3006 RMK A01 T00671131  RH  023%=      5-min Rain = 0
KDC1 120232Z 30008KT 07/M13 A3006 RMK A01 T00661130  RH  023%=      5-min Rain = 0
KDC1 120233Z 30008KT 07/M13 A3006 RMK A01 T00651128  RH  024%=      5-min Rain = 0
KDC1 120234Z 30008KT 07/M13 A3006 RMK A01 T00651128  RH  024%=      5-min Rain = 0
KDC1 120235Z 30008KT 06/M13 A3006 RMK A01 T00631128  RH  024%=      5-min Rain = 0
KDC1 120236Z 30008KT 06/M13 A3006 RMK A01 T00621128  RH  024%=      5-min Rain = 0
KDC1 120237Z 30008KT 06/M13 A3006 RMK A01 T00611127  RH  025%=      5-min Rain = 0
KDC1 120238Z 30008KT 06/M13 A3007 RMK A01 T00601126  RH  025%=      5-min Rain = 0
KDC1 120239Z 29008KT 06/M12 A3007 RMK A01 T00581124  RH  026%=      5-min Rain = 0
KDC1 120240Z 29008KT 06/M12 A3007 RMK A01 T00561122  RH  026%=      5-min Rain = 0
KDC1 120241Z 29008KT 05/M12 A3007 RMK A01 T00541121  RH  027%=      5-min Rain = 0
KDC1 120242Z 29008KT 05/M12 A3007 RMK A01 T00521121  RH  027%=      5-min Rain = 0
KDC1 120243Z 29007KT 05/M13 A3007 RMK A01 T00521126  RH  026%=      5-min Rain = 0
KDC1 120244Z 28007KT 05/M13 A3007 RMK A01 T00521130  RH  026%=      5-min Rain = 0
KDC1 120245Z 28007KT 05/M14 A3007 RMK A01 T00521135  RH  024%=      5-min Rain = 0
KDC1 120246Z 26006KT 05/M14 A3007 RMK A01 T00541139  RH  023%=      5-min Rain = 0
KDC1 120247Z 24005KT 06/M14 A3007 RMK A01 T00561142  RH  023%=      5-min Rain = 0
KDC1 120248Z 24004KT 06/M14 A3007 RMK A01 T00551140  RH  023%=      5-min Rain = 0
KDC1 120249Z 23004KT 05/M14 A3008 RMK A01 T00531140  RH  023%=      5-min Rain = 0
KDC1 120250Z 24006KT 05/M14 A3008 RMK A01 T00521142  RH  023%=      5-min Rain = 0
KDC1 120251Z 25006KT 05/M14 A3008 RMK A01 T00531144  RH  023%=      5-min Rain = 0
KDC1 120252Z 25007KT 05/M15 A3008 RMK A01 T00541146  RH  022%=      5-min Rain = 0
KDC1 120253Z 25007KT 06/M15 A3008 RMK A01 T00551146  RH  022%=      5-min Rain = 0
KDC1 120254Z 25007KT 06/M15 A3008 RMK A01 T00561146  RH  022%=      5-min Rain = 0
KDC1 120255Z 25007KT 06/M15 A3008 RMK A01 T00581147  RH  021%=      5-min Rain = 0
KDC1 120256Z 25007KT 06/M15 A3008 RMK A01 T00581147  RH  021%=      5-min Rain = 0
KDC1 120257Z 25007KT 06/M15 A3008 RMK A01 T00581147  RH  021%=      5-min Rain = 0
KDC1 120258Z 26007KT 06/M15 A3008 RMK A01 T00581147  RH  021%=      5-min Rain = 0
KDC1 120259Z 26007KT 06/M15 A3008 RMK A01 T00571145  RH  022%=      5-min Rain = 0
KDC1 120300Z 27008KT 06/M15 A3008 RMK A01 T00561145  RH  022%=      5-min Rain = 0
KDC1 120301Z 27008KT 06/M15 A3008 RMK A01 T00561146  RH  022%=      5-min Rain = 0
KDC1 120302Z 27007KT 06/M15 A3008 RMK A01 T00561146  RH  022%=      5-min Rain = 0
KDC1 120303Z 27007KT 06/M15 A3009 RMK A01 T00551145  RH  022%=      5-min Rain = 0
KDC1 120304Z 26007KT 05/M14 A3009 RMK A01 T00531143  RH  023%=      5-min Rain = 0
KDC1 120305Z 26007KT 05/M14 A3009 RMK A01 T00521144  RH  023%=      5-min Rain = 0
KDC1 120306Z 26007KT 05/M14 A3009 RMK A01 T00521144  RH  023%=      5-min Rain = 0
KDC1 120307Z 26007KT 05/M14 A3009 RMK A01 T00521143  RH  023%=      5-min Rain = 0
KDC1 120308Z 26007KT 05/M14 A3009 RMK A01 T00511142  RH  023%=      5-min Rain = 0
KDC1 120309Z 25006KT 05/M14 A3009 RMK A01 T00491142  RH  024%=      5-min Rain = 0
KDC1 120310Z 24006KT 05/M14 A3009 RMK A01 T00481141  RH  024%=      5-min Rain = 0
KDC1 120311Z 23006KT 05/M14 A3009 RMK A01 T00461142  RH  024%=      5-min Rain = 0
KDC1 120312Z 24006KT 05/M14 A3009 RMK A01 T00461142  RH  024%=      5-min Rain = 0
KDC1 120313Z 23007KT 05/M14 A301 RMK A01 T00471144  RH  024%=      5-min Rain = 0
KDC1 120314Z 24006KT 05/M15 A301 RMK A01 T00491145  RH  023%=      5-min Rain = 0
KDC1 120315Z 23006KT 05/M15 A301 RMK A01 T00511146  RH  022%=      5-min Rain = 0
KDC1 120316Z 23006KT 05/M15 A301 RMK A01 T00521145  RH  022%=      5-min Rain = 0
KDC1 120317Z 23006KT 05/M15 A301 RMK A01 T00521146  RH  022%=      5-min Rain = 0
KDC1 120318Z 23007KT 05/M15 A301 RMK A01 T00531145  RH  022%=      5-min Rain = 0
KDC1 120319Z 23006KT 05/M15 A301 RMK A01 T00531146  RH  022%=      5-min Rain = 0
KDC1 120320Z 23007KT 05/M15 A301 RMK A01 T00531145  RH  022%=      5-min Rain = 0
KDC1 120321Z 23006KT 05/M15 A301 RMK A01 T00531146  RH  022%=      5-min Rain = 0
KDC1 120322Z 23007KT 05/M15 A301 RMK A01 T00531147  RH  022%=      5-min Rain = 0
KDC1 120323Z 24006KT 05/M15 A301 RMK A01 T00531146  RH  022%=      5-min Rain = 0
KDC1 120324Z 23006KT 05/M15 A301 RMK A01 T00531146  RH  022%=      5-min Rain = 0
KDC1 120325Z 24006KT 05/M15 A301 RMK A01 T00531147  RH  022%=      5-min Rain = 0
KDC1 120326Z 24006KT 05/M15 A301 RMK A01 T00541148  RH  022%=      5-min Rain = 0
KDC1 120327Z 23007KT 06/M15 A301 RMK A01 T00551148  RH  022%=      5-min Rain = 0
KDC1 120328Z 24005KT 06/M15 A301 RMK A01 T00561149  RH  021%=      5-min Rain = 0
KDC1 120329Z 24007KT 06/M15 A301 RMK A01 T00561149  RH  021%=      5-min Rain = 0
KDC1 120330Z 25008KT 06/M15 A301 RMK A01 T00571151  RH  021%=      5-min Rain = 0
KDC1 120331Z 25009KT 06/M15 A301 RMK A01 T00601153  RH  020%=      5-min Rain = 0
KDC1 120332Z 25008KT 06/M15 A301 RMK A01 T00641154  RH  019%=      5-min Rain = 0
KDC1 120333Z 24007KT 06/M15 A301 RMK A01 T00641153  RH  019%=      5-min Rain = 0
KDC1 120334Z 24007KT 06/M15 A301 RMK A01 T00631154  RH  019%=      5-min Rain = 0
KDC1 120335Z 24006KT 06/M15 A301 RMK A01 T00631154  RH  019%=      5-min Rain = 0
KDC1 120336Z 24006KT 06/M15 A301 RMK A01 T00611152  RH  020%=      5-min Rain = 0
KDC1 120337Z 23007KT 06/M15 A3011 RMK A01 T00591152  RH  020%=      5-min Rain = 0
KDC1 120338Z 22007KT 06/M15 A3011 RMK A01 T00571151  RH  021%=      5-min Rain = 0
KDC1 120339Z 23007KT 06/M15 A3011 RMK A01 T00561150  RH  021%=      5-min Rain = 0
KDC1 120340Z 23006KT 05/M15 A3011 RMK A01 T00541150  RH  021%=      5-min Rain = 0
KDC1 120341Z 23008KT 05/M15 A3011 RMK A01 T00531150  RH  021%=      5-min Rain = 0
KDC1 120342Z 23007KT 05/M15 A3011 RMK A01 T00521150  RH  022%=      5-min Rain = 0
KDC1 120343Z 23007KT 05/M15 A3011 RMK A01 T00511149  RH  022%=      5-min Rain = 0
KDC1 120344Z 23007KT 05/M15 A3011 RMK A01 T00501150  RH  022%=      5-min Rain = 0
KDC1 120345Z 23006KT 05/M15 A3011 RMK A01 T00501149  RH  022%=      5-min Rain = 0
KDC1 120346Z 23006KT 05/M15 A3011 RMK A01 T00491149  RH  022%=      5-min Rain = 0
KDC1 120347Z 23007KT 05/M15 A3011 RMK A01 T00481149  RH  022%=      5-min Rain = 0
KDC1 120348Z 23006KT 05/M15 A3011 RMK A01 T00481149  RH  022%=      5-min Rain = 0
KDC1 120349Z 23006KT 05/M15 A3011 RMK A01 T00471149  RH  023%=      5-min Rain = 0
KDC1 120350Z 23006KT 05/M15 A3011 RMK A01 T00471149  RH  023%=      5-min Rain = 0
KDC1 120351Z 23006KT 05/M15 A3011 RMK A01 T00471148  RH  023%=      5-min Rain = 0
KDC1 120352Z 23006KT 05/M15 A3011 RMK A01 T00471149  RH  023%=      5-min Rain = 0
KDC1 120353Z 23006KT 05/M15 A3011 RMK A01 T00461148  RH  023%=      5-min Rain = 0
KDC1 120354Z 22006KT 05/M15 A3011 RMK A01 T00461148  RH  023%=      5-min Rain = 0
KDC1 120355Z 22006KT 05/M15 A3011 RMK A01 T00461149  RH  023%=      5-min Rain = 0
KDC1 120356Z 21005KT 05/M15 A3011 RMK A01 T00451148  RH  023%=      5-min Rain = 0
KDC1 120357Z 21005KT 04/M15 A3011 RMK A01 T00441148  RH  023%=      5-min Rain = 0
KDC1 120358Z 22005KT 04/M15 A3011 RMK A01 T00441148  RH  023%=      5-min Rain = 0
KDC1 120359Z 22005KT 04/M15 A3011 RMK A01 T00441148  RH  023%=      5-min Rain = 0
KDC1 120400Z 22005KT 04/M15 A3011 RMK A01 T00431148  RH  023%=      5-min Rain = 0
KDC1 120401Z 22005KT 04/M15 A3011 RMK A01 T00431148  RH  023%=      5-min Rain = 0
KDC1 120402Z 22005KT 04/M15 A3011 RMK A01 T00431149  RH  023%=      5-min Rain = 0
KDC1 120403Z 22005KT 04/M15 A3011 RMK A01 T00431149  RH  023%=      5-min Rain = 0
KDC1 120404Z 21004KT 04/M15 A3012 RMK A01 T00431149  RH  023%=      5-min Rain = 0
KDC1 120405Z 21004KT 04/M15 A3012 RMK A01 T00441149  RH  023%=      5-min Rain = 0
KDC1 120406Z 21005KT 04/M15 A3012 RMK A01 T00441149  RH  023%=      5-min Rain = 0
KDC1 120407Z 21004KT 04/M15 A3012 RMK A01 T00441149  RH  023%=      5-min Rain = 0
KDC1 120408Z 21005KT 04/M15 A3012 RMK A01 T00441149  RH  023%=      5-min Rain = 0
KDC1 120409Z 21005KT 04/M15 A3012 RMK A01 T00441149  RH  023%=      5-min Rain = 0
KDC1 120410Z 20005KT 05/M15 A3012 RMK A01 T00451147  RH  023%=      5-min Rain = 0
KDC1 120411Z 20005KT 04/M15 A3012 RMK A01 T00441145  RH  024%=      5-min Rain = 0
KDC1 120412Z 20004KT 04/M14 A3012 RMK A01 T00431143  RH  024%=      5-min Rain = 0
KDC1 120413Z 20004KT 04/M14 A3012 RMK A01 T00421141  RH  025%=      5-min Rain = 0
KDC1 120414Z 20005KT 04/M14 A3012 RMK A01 T00401138  RH  026%=      5-min Rain = 0
KDC1 120415Z 20004KT 04/M14 A3012 RMK A01 T00391140  RH  026%=      5-min Rain = 0
KDC1 120416Z 20004KT 04/M14 A3012 RMK A01 T00391137  RH  026%=      5-min Rain = 0
KDC1 120417Z 20004KT 04/M14 A3012 RMK A01 T00381137  RH  027%=      5-min Rain = 0
KDC1 120418Z 20005KT 04/M14 A3012 RMK A01 T00381139  RH  026%=      5-min Rain = 0
KDC1 120419Z 19005KT 04/M14 A3012 RMK A01 T00381140  RH  026%=      5-min Rain = 0
KDC1 120420Z 20004KT 04/M14 A3012 RMK A01 T00381139  RH  026%=      5-min Rain = 0
KDC1 120421Z 20005KT 04/M14 A3012 RMK A01 T00381138  RH  026%=      5-min Rain = 0
KDC1 120422Z 20005KT 04/M14 A3012 RMK A01 T00381139  RH  026%=      5-min Rain = 0
KDC1 120423Z 20005KT 04/M14 A3012 RMK A01 T00391141  RH  026%=      5-min Rain = 0
KDC1 120424Z 20005KT 04/M14 A3012 RMK A01 T00401142  RH  025%=      5-min Rain = 0
KDC1 120425Z 20004KT 04/M14 A3012 RMK A01 T00401143  RH  025%=      5-min Rain = 0
KDC1 120426Z 20004KT 04/M15 A3012 RMK A01 T00421145  RH  024%=      5-min Rain = 0
KDC1 120427Z 20004KT 04/M15 A3012 RMK A01 T00431145  RH  024%=      5-min Rain = 0
KDC1 120428Z 21004KT 04/M14 A3012 RMK A01 T00431144  RH  024%=      5-min Rain = 0
KDC1 120429Z 21005KT 04/M15 A3012 RMK A01 T00431145  RH  024%=      5-min Rain = 0
KDC1 120430Z 21004KT 04/M15 A3012 RMK A01 T00441147  RH  024%=      5-min Rain = 0
KDC1 120431Z 21004KT 05/M15 A3012 RMK A01 T00451147  RH  023%=      5-min Rain = 0
KDC1 120432Z 20004KT 05/M15 A3012 RMK A01 T00451148  RH  023%=      5-min Rain = 0
KDC1 120433Z 20004KT 05/M15 A3012 RMK A01 T00461149  RH  023%=      5-min Rain = 0
KDC1 120434Z 20003KT 05/M15 A3012 RMK A01 T00471148  RH  023%=      5-min Rain = 0
KDC1 120435Z 20004KT 05/M15 A3012 RMK A01 T00471150  RH  022%=      5-min Rain = 0
KDC1 120436Z 20004KT 05/M15 A3012 RMK A01 T00481152  RH  022%=      5-min Rain = 0
KDC1 120437Z 21004KT 05/M15 A3012 RMK A01 T00491152  RH  022%=      5-min Rain = 0
KDC1 120438Z 20004KT 05/M15 A3012 RMK A01 T00501154  RH  021%=      5-min Rain = 0
KDC1 120439Z 21004KT 05/M15 A3012 RMK A01 T00511154  RH  021%=      5-min Rain = 0
KDC1 120440Z 21003KT 05/M15 A3013 RMK A01 T00511154  RH  021%=      5-min Rain = 0
KDC1 120441Z 21002KT 05/M15 A3013 RMK A01 T00511154  RH  021%=      5-min Rain = 0
KDC1 120442Z 22002KT 05/M16 A3013 RMK A01 T00511155  RH  021%=      5-min Rain = 0
KDC1 120443Z 20001KT 05/M16 A3013 RMK A01 T00511156  RH  021%=      5-min Rain = 0
KDC1 120444Z 21001KT 05/M15 A3013 RMK A01 T00511154  RH  021%=      5-min Rain = 0
KDC1 120445Z 20002KT 05/M15 A3013 RMK A01 T00511151  RH  022%=      5-min Rain = 0
KDC1 120446Z 20003KT 05/M16 A3013 RMK A01 T00511156  RH  021%=      5-min Rain = 0
KDC1 120447Z 21003KT 05/M16 A3013 RMK A01 T00531158  RH  020%=      5-min Rain = 0
KDC1 120448Z 24001KT 05/M16 A3013 RMK A01 T00531156  RH  021%=      5-min Rain = 0
KDC1 120449Z 17000KT 05/M15 A3013 RMK A01 T00461151  RH  023%=      5-min Rain = 0
KDC1 120450Z 22002KT 04/M15 A3013 RMK A01 T00421153  RH  023%=      5-min Rain = 0
KDC1 120451Z 25002KT 04/M15 A3014 RMK A01 T00411152  RH  023%=      5-min Rain = 0
KDC1 120452Z 12001KT 04/M16 A3013 RMK A01 T00401156  RH  022%=      5-min Rain = 0
KDC1 120453Z 30002KT 04/M15 A3013 RMK A01 T00411152  RH  023%=      5-min Rain = 0
KDC1 120454Z 27003KT 04/M15 A3014 RMK A01 T00371152  RH  024%=      5-min Rain = 0
KDC1 120455Z 20002KT 04/M15 A3013 RMK A01 T00371152  RH  024%=      5-min Rain = 0
KDC1 120456Z 27002KT 04/M15 A3013 RMK A01 T00371153  RH  024%=      5-min Rain = 0
KDC1 120457Z 28007KT 04/M16 A3013 RMK A01 T00391156  RH  023%=      5-min Rain = 0
KDC1 120458Z 26006KT 05/M16 A3013 RMK A01 T00481158  RH  021%=      5-min Rain = 0
KDC1 120459Z 23004KT 05/M16 A3013 RMK A01 T00541158  RH  020%=      5-min Rain = 0
KDC1 120500Z 27007KT 05/M16 A3013 RMK A01 T00531158  RH  020%=      5-min Rain = 0
KDC1 120501Z 27008KT 06/M16 A3013 RMK A01 T00591163  RH  019%=      5-min Rain = 0
KDC1 120502Z 25008KT 06/M16 A3013 RMK A01 T00631163  RH  018%=      5-min Rain = 0
KDC1 120503Z 25007KT 06/M16 A3013 RMK A01 T00621163  RH  018%=      5-min Rain = 0
KDC1 120504Z 25007KT 06/M16 A3013 RMK A01 T00611164  RH  018%=      5-min Rain = 0
KDC1 120505Z 25006KT 06/M16 A3013 RMK A01 T00601163  RH  018%=      5-min Rain = 0
KDC1 120506Z 24007KT 06/M16 A3013 RMK A01 T00581162  RH  019%=      5-min Rain = 0
KDC1 120507Z 26008KT 06/M16 A3013 RMK A01 T00571162  RH  019%=      5-min Rain = 0
KDC1 120508Z 25009KT 06/M16 A3013 RMK A01 T00581164  RH  018%=      5-min Rain = 0
KDC1 120509Z 26009KT 06/M16 A3013 RMK A01 T00611164  RH  018%=      5-min Rain = 0
KDC1 120510Z 25008KT 06/M16 A3013 RMK A01 T00591163  RH  019%=      5-min Rain = 0
KDC1 120511Z 25009KT 05/M16 A3013 RMK A01 T00541161  RH  020%=      5-min Rain = 0
KDC1 120512Z 26009KT 05/M16 A3013 RMK A01 T00521162  RH  020%=      5-min Rain = 0
KDC1 120513Z 25008KT 06/M16 A3013 RMK A01 T00551163  RH  019%=      5-min Rain = 0
KDC1 120514Z 25008KT 06/M16 A3013 RMK A01 T00561164  RH  019%=      5-min Rain = 0
KDC1 120515Z 26008KT 06/M16 A3013 RMK A01 T00571164  RH  019%=      5-min Rain = 0
KDC1 120516Z 26008KT 06/M16 A3013 RMK A01 T00571163  RH  019%=      5-min Rain = 0
KDC1 120517Z 26007KT 06/M16 A3013 RMK A01 T00561163  RH  019%=      5-min Rain = 0
KDC1 120518Z 26007KT 06/M16 A3014 RMK A01 T00551163  RH  019%=      5-min Rain = 0
KDC1 120519Z 26008KT 05/M16 A3014 RMK A01 T00541162  RH  019%=      5-min Rain = 0
KDC1 120520Z 26007KT 05/M16 A3014 RMK A01 T00521161  RH  020%=      5-min Rain = 0
KDC1 120521Z 27006KT 05/M16 A3014 RMK A01 T00471157  RH  021%=      5-min Rain = 0
KDC1 120522Z 32005KT 04/M15 A3014 RMK A01 T00421147  RH  024%=      5-min Rain = 0
KDC1 120523Z 01006KT 04/M14 A3014 RMK A01 T00371143  RH  025%=      5-min Rain = 0
KDC1 120524Z 01006KT 03/M15 A3014 RMK A01 T00331147  RH  025%=      5-min Rain = 0
KDC1 120525Z 35006KT 03/M15 A3014 RMK A01 T00311152  RH  024%=      5-min Rain = 0
KDC1 120526Z 33005KT 03/M16 A3014 RMK A01 T00321156  RH  024%=      5-min Rain = 0
KDC1 120527Z 29005KT 04/M16 A3014 RMK A01 T00351155  RH  023%=      5-min Rain = 0
KDC1 120528Z 30005KT 04/M15 A3014 RMK A01 T00351152  RH  024%=      5-min Rain = 0
KDC1 120529Z 29004KT 03/M15 A3014 RMK A01 T00331149  RH  025%=      5-min Rain = 0
KDC1 120530Z 29005KT 03/M15 A3014 RMK A01 T00331152  RH  024%=      5-min Rain = 0
KDC1 120531Z 30006KT 03/M15 A3014 RMK A01 T00341149  RH  025%=      5-min Rain = 0
KDC1 120532Z 31006KT 03/M14 A3015 RMK A01 T00321140  RH  027%=      5-min Rain = 0
KDC1 120533Z 31005KT 03/M14 A3015 RMK A01 T00261135  RH  029%=      5-min Rain = 0
KDC1 120534Z 31004KT 03/M14 A3015 RMK A01 T00261142  RH  028%=      5-min Rain = 0
KDC1 120535Z 32004KT 03/M14 A3015 RMK A01 T00291142  RH  027%=      5-min Rain = 0
KDC1 120536Z 33004KT 03/M14 A3015 RMK A01 T00271140  RH  028%=      5-min Rain = 0
KDC1 120537Z 32004KT 02/M14 A3015 RMK A01 T00241139  RH  029%=      5-min Rain = 0
KDC1 120538Z 30003KT 02/M14 A3015 RMK A01 T00211137  RH  030%=      5-min Rain = 0
KDC1 120539Z 27003KT 02/M14 A3015 RMK A01 T00221142  RH  028%=      5-min Rain = 0
KDC1 120540Z 26004KT 02/M14 A3015 RMK A01 T00241142  RH  028%=      5-min Rain = 0
KDC1 120541Z 25005KT 03/M15 A3015 RMK A01 T00251146  RH  027%=      5-min Rain = 0
KDC1 120542Z 25006KT 03/M15 A3014 RMK A01 T00271149  RH  026%=      5-min Rain = 0
KDC1 120543Z 25008KT 03/M15 A3014 RMK A01 T00271151  RH  026%=      5-min Rain = 0
KDC1 120544Z 24008KT 03/M15 A3014 RMK A01 T00301154  RH  024%=      5-min Rain = 0
KDC1 120545Z 25008KT 04/M16 A3014 RMK A01 T00351155  RH  023%=      5-min Rain = 0
KDC1 120546Z 25007KT 04/M16 A3014 RMK A01 T00371156  RH  023%=      5-min Rain = 0
KDC1 120547Z 25006KT 04/M16 A3015 RMK A01 T00381158  RH  022%=      5-min Rain = 0
KDC1 120548Z 25005KT 04/M16 A3015 RMK A01 T00381159  RH  022%=      5-min Rain = 0
KDC1 120549Z 25004KT 04/M16 A3015 RMK A01 T00381158  RH  022%=      5-min Rain = 0
KDC1 120550Z 25005KT 04/M16 A3015 RMK A01 T00361158  RH  023%=      5-min Rain = 0
KDC1 120551Z 25005KT 03/M16 A3015 RMK A01 T00331158  RH  023%=      5-min Rain = 0
KDC1 120552Z 24006KT 03/M15 A3015 RMK A01 T00251151  RH  026%=      5-min Rain = 0
KDC1 120553Z 25007KT 02/M15 A3014 RMK A01 T00221153  RH  026%=      5-min Rain = 0
KDC1 120554Z 25008KT 03/M16 A3014 RMK A01 T00261155  RH  025%=      5-min Rain = 0
KDC1 120555Z 25007KT 03/M16 A3014 RMK A01 T00311157  RH  024%=      5-min Rain = 0
KDC1 120556Z 25007KT 04/M16 A3014 RMK A01 T00351158  RH  023%=      5-min Rain = 0
KDC1 120557Z 26007KT 04/M16 A3014 RMK A01 T00361158  RH  023%=      5-min Rain = 0
KDC1 120558Z 25007KT 04/M16 A3014 RMK A01 T00361157  RH  023%=      5-min Rain = 0
KDC1 120559Z 25007KT 04/M16 A3014 RMK A01 T00351158  RH  023%=      5-min Rain = 0

Page generated in 0.0933 seconds.